Wetterdaten: Sonntag, 10.11.2019
Datum Zeit Temp. Aussen Temp. o. S. Temp +5cm Feuchte Auss Luftdruck Regen Sonnenschein Regendauer Solar Windben Empfang
10.11.2019 00:00 1,6 C -0,6 C -0,6 C 94 % 1008,5 hPa 0,0 l/m 0 min 0 min 0 W/m 0,0 km/h (0 Bft) 100,00 %
10.11.2019 00:02 1,6 C -0,6 C -0,6 C 94 % 1008,5 hPa 0,0 l/m 0 min 0 min 0 W/m 0,0 km/h (0 Bft) 100,00 %
10.11.2019 00:04 1,5 C -0,6 C -0,6 C 94 % 1008,6 hPa 0,0 l/m 0 min 0 min 0 W/m 0,0 km/h (0 Bft) 100,00 %
10.11.2019 00:08 1,4 C 0,0 C -0,6 C 94 % 1008,5 hPa 0,0 l/m 0 min 0 min 0 W/m 0,0 km/h (0 Bft) 98,94 %
10.11.2019 00:10 1,4 C 0,0 C -0,6 C 94 % 1008,6 hPa 0,0 l/m 0 min 0 min 0 W/m 3,2 km/h (1 Bft) 100,00 %
10.11.2019 00:12 1,4 C 0,0 C -0,6 C 94 % 1008,7 hPa 0,0 l/m 0 min 0 min 0 W/m 3,2 km/h (1 Bft) 97,87 %
10.11.2019 00:14 1,3 C 0,6 C 0,0 C 94 % 1008,6 hPa 0,0 l/m 0 min 0 min 0 W/m 6,4 km/h (2 Bft) 100,00 %
10.11.2019 00:16 1,3 C 0,6 C 0,0 C 94 % 1008,7 hPa 0,0 l/m 0 min 0 min 0 W/m 3,2 km/h (1 Bft) 100,00 %
10.11.2019 00:18 1,3 C 0,6 C 0,0 C 94 % 1008,7 hPa 0,0 l/m 0 min 0 min 0 W/m 6,4 km/h (2 Bft) 100,00 %
10.11.2019 00:20 1,4 C 0,6 C 0,0 C 95 % 1008,7 hPa 0,0 l/m 0 min 0 min 0 W/m 3,2 km/h (1 Bft) 100,00 %
10.11.2019 00:22 1,3 C 0,6 C 0,0 C 95 % 1008,7 hPa 0,0 l/m 0 min 0 min 0 W/m 3,2 km/h (1 Bft) 100,00 %
10.11.2019 00:24 1,4 C 0,6 C 0,0 C 95 % 1008,7 hPa 0,0 l/m 0 min 0 min 0 W/m 3,2 km/h (1 Bft) 100,00 %
10.11.2019 00:26 1,4 C 0,6 C 0,0 C 95 % 1008,7 hPa 0,0 l/m 0 min 0 min 0 W/m 0,0 km/h (0 Bft) 100,00 %
10.11.2019 00:28 1,4 C 0,6 C 0,0 C 95 % 1008,7 hPa 0,0 l/m 0 min 0 min 0 W/m 0,0 km/h (0 Bft) 100,00 %
10.11.2019 00:30 1,4 C 0,6 C 0,0 C 95 % 1008,7 hPa 0,0 l/m 0 min 0 min 0 W/m 0,0 km/h (0 Bft) 97,87 %
10.11.2019 00:32 1,4 C 0,6 C 0,0 C 95 % 1008,7 hPa 0,0 l/m 0 min 0 min 0 W/m 0,0 km/h (0 Bft) 100,00 %
10.11.2019 00:34 1,4 C 0,6 C 0,0 C 95 % 1008,7 hPa 0,0 l/m 0 min 0 min 0 W/m 3,2 km/h (1 Bft) 100,00 %
10.11.2019 00:36 1,4 C 0,6 C 0,0 C 95 % 1008,7 hPa 0,0 l/m 0 min 0 min 0 W/m 3,2 km/h (1 Bft) 100,00 %
10.11.2019 00:38 1,4 C 0,6 C 0,0 C 95 % 1008,8 hPa 0,0 l/m 0 min 0 min 0 W/m 0,0 km/h (0 Bft) 54,55 %
10.11.2019 00:40 1,4 C 0,6 C 0,0 C 95 % 1008,7 hPa 0,0 l/m 0 min 0 min 0 W/m 0,0 km/h (0 Bft) 100,00 %
10.11.2019 00:42 1,4 C 0,6 C 0,0 C 95 % 1008,7 hPa 0,0 l/m 0 min 0 min 0 W/m 0,0 km/h (0 Bft) 100,00 %
10.11.2019 00:44 1,4 C 0,6 C 0,6 C 95 % 1008,8 hPa 0,0 l/m 0 min 0 min 0 W/m 3,2 km/h (1 Bft) 97,87 %
10.11.2019 00:46 1,4 C 0,6 C 0,6 C 95 % 1008,8 hPa 0,0 l/m 0 min 0 min 0 W/m 0,0 km/h (0 Bft) 97,87 %
10.11.2019 00:48 1,4 C 0,6 C 0,0 C 95 % 1008,7 hPa 0,0 l/m 0 min 0 min 0 W/m 3,2 km/h (1 Bft) 97,83 %
10.11.2019 00:50 1,4 C 1,1 C 0,6 C 95 % 1008,8 hPa 0,0 l/m 0 min 0 min 0 W/m 12,9 km/h (3 Bft) 100,00 %
10.11.2019 00:52 1,4 C 1,1 C 0,6 C 95 % 1008,8 hPa 0,0 l/m 0 min 0 min 0 W/m 3,2 km/h (1 Bft) 100,00 %
10.11.2019 00:54 1,4 C 1,1 C 0,6 C 95 % 1008,8 hPa 0,0 l/m 0 min 0 min 0 W/m 6,4 km/h (2 Bft) 100,00 %
10.11.2019 00:56 1,4 C 1,1 C 0,6 C 95 % 1008,9 hPa 0,0 l/m 0 min 0 min 0 W/m 6,4 km/h (2 Bft) 97,87 %
10.11.2019 00:58 1,4 C 1,1 C 0,6 C 95 % 1008,9 hPa 0,0 l/m 0 min 0 min 0 W/m 12,9 km/h (3 Bft) 97,87 %
10.11.2019 01:00 1,5 C 1,1 C 0,6 C 96 % 1008,9 hPa 0,0 l/m 0 min 0 min 0 W/m 6,4 km/h (2 Bft) 100,00 %
10.11.2019 01:02 1,5 C 0,6 C 0,6 C 95 % 1008,9 hPa 0,0 l/m 0 min 0 min 0 W/m 3,2 km/h (1 Bft) 97,87 %
10.11.2019 01:04 1,5 C 1,1 C 0,6 C 95 % 1008,9 hPa 0,0 l/m 0 min 0 min 0 W/m 6,4 km/h (2 Bft) 97,87 %
10.11.2019 01:06 1,6 C 1,1 C 0,6 C 95 % 1008,9 hPa 0,0 l/m 0 min 0 min 0 W/m 6,4 km/h (2 Bft) 97,87 %
10.11.2019 01:08 1,6 C 1,1 C 0,6 C 95 % 1008,9 hPa 0,0 l/m 0 min 0 min 0 W/m 6,4 km/h (2 Bft) 100,00 %
10.11.2019 01:10 1,6 C 1,1 C 0,6 C 96 % 1008,8 hPa 0,0 l/m 0 min 0 min 0 W/m 12,9 km/h (3 Bft) 95,74 %
10.11.2019 01:12 1,6 C 1,1 C 0,6 C 96 % 1008,9 hPa 0,0 l/m 0 min 0 min 0 W/m 12,9 km/h (3 Bft) 97,87 %
10.11.2019 01:14 1,6 C 1,1 C 0,6 C 96 % 1008,9 hPa 0,0 l/m 0 min 0 min 0 W/m 3,2 km/h (1 Bft) 95,65 %
10.11.2019 01:16 1,6 C 1,1 C 0,6 C 96 % 1008,8 hPa 0,0 l/m 0 min 0 min 0 W/m 3,2 km/h (1 Bft) 97,87 %
10.11.2019 01:18 1,6 C 0,6 C 0,6 C 96 % 1008,8 hPa 0,0 l/m 0 min 0 min 0 W/m 3,2 km/h (1 Bft) 95,74 %
10.11.2019 01:20 1,6 C 0,6 C 0,6 C 96 % 1008,8 hPa 0,0 l/m 0 min 0 min 0 W/m 3,2 km/h (1 Bft) 95,74 %
10.11.2019 01:22 1,6 C 1,1 C 0,6 C 96 % 1008,8 hPa 0,0 l/m 0 min 0 min 0 W/m 0,0 km/h (0 Bft) 95,74 %
10.11.2019 01:24 1,6 C 1,1 C 0,6 C 96 % 1008,9 hPa 0,0 l/m 0 min 0 min 0 W/m 3,2 km/h (1 Bft) 93,62 %
10.11.2019 01:26 1,6 C 0,6 C 0,6 C 96 % 1008,9 hPa 0,0 l/m 0 min 0 min 0 W/m 6,4 km/h (2 Bft) 95,65 %
10.11.2019 01:28 1,6 C 1,1 C 0,6 C 96 % 1008,9 hPa 0,0 l/m 0 min 0 min 0 W/m 6,4 km/h (2 Bft) 93,62 %
10.11.2019 01:30 1,6 C 1,1 C 0,6 C 96 % 1008,8 hPa 0,0 l/m 0 min 0 min 0 W/m 6,4 km/h (2 Bft) 95,74 %
10.11.2019 01:32 1,6 C 1,1 C 0,6 C 96 % 1008,8 hPa 0,0 l/m 0 min 0 min 0 W/m 6,4 km/h (2 Bft) 93,62 %
10.11.2019 01:34 1,6 C 1,1 C 0,6 C 96 % 1008,8 hPa 0,0 l/m 0 min 0 min 0 W/m 3,2 km/h (1 Bft) 93,62 %
10.11.2019 01:36 1,6 C 0,6 C 0,6 C 96 % 1008,9 hPa 0,0 l/m 0 min 0 min 0 W/m 3,2 km/h (1 Bft) 95,74 %
10.11.2019 01:38 1,6 C 0,6 C 0,6 C 96 % 1008,9 hPa 0,0 l/m 0 min 0 min 0 W/m 3,2 km/h (1 Bft) 93,48 %
10.11.2019 01:40 1,6 C 0,6 C 0,6 C 96 % 1008,9 hPa 0,0 l/m 0 min 0 min 0 W/m 3,2 km/h (1 Bft) 95,74 %
10.11.2019 01:42 1,6 C 1,1 C 0,6 C 96 % 1008,9 hPa 0,0 l/m 0 min 0 min 0 W/m 6,4 km/h (2 Bft) 93,62 %
10.11.2019 01:44 1,6 C 1,1 C 0,6 C 96 % 1008,9 hPa 0,0 l/m 0 min 0 min 0 W/m 12,9 km/h (3 Bft) 95,74 %
10.11.2019 01:46 1,6 C 1,1 C 0,6 C 96 % 1009,0 hPa 0,0 l/m 0 min 0 min 0 W/m 6,4 km/h (2 Bft) 95,74 %
10.11.2019 01:48 1,6 C 1,1 C 0,6 C 96 % 1009,0 hPa 0,0 l/m 0 min 0 min 0 W/m 6,4 km/h (2 Bft) 97,87 %
10.11.2019 01:50 1,6 C 1,1 C 0,6 C 96 % 1009,0 hPa 0,0 l/m 0 min 0 min 0 W/m 6,4 km/h (2 Bft) 97,83 %
10.11.2019 01:52 1,6 C 1,1 C 0,6 C 96 % 1009,0 hPa 0,0 l/m 0 min 0 min 0 W/m 6,4 km/h (2 Bft) 97,87 %
10.11.2019 01:54 1,6 C 1,1 C 0,6 C 96 % 1009,0 hPa 0,0 l/m 0 min 0 min 0 W/m 6,4 km/h (2 Bft) 97,87 %
10.11.2019 01:56 1,6 C 0,6 C 0,6 C 96 % 1009,0 hPa 0,0 l/m 0 min 0 min 0 W/m 6,4 km/h (2 Bft) 95,74 %
10.11.2019 01:58 1,6 C 0,6 C 0,6 C 96 % 1009,0 hPa 0,0 l/m 0 min 0 min 0 W/m 3,2 km/h (1 Bft) 97,87 %
10.11.2019 02:00 1,6 C 0,6 C 0,6 C 96 % 1009,0 hPa 0,0 l/m 0 min 0 min 0 W/m 0,0 km/h (0 Bft) 95,74 %
10.11.2019 02:02 1,6 C 0,6 C 0,6 C 96 % 1009,0 hPa 0,0 l/m 0 min 0 min 0 W/m 3,2 km/h (1 Bft) 97,83 %
10.11.2019 02:04 1,6 C 0,6 C 0,6 C 96 % 1009,0 hPa 0,0 l/m 0 min 0 min 0 W/m 3,2 km/h (1 Bft) 100,00 %
10.11.2019 02:06 1,6 C 0,6 C 0,0 C 96 % 1009,0 hPa 0,0 l/m 0 min 0 min 0 W/m 0,0 km/h (0 Bft) 100,00 %
10.11.2019 02:08 1,6 C 0,0 C 0,0 C 96 % 1009,1 hPa 0,0 l/m 0 min 0 min 0 W/m 0,0 km/h (0 Bft) 97,87 %
10.11.2019 02:10 1,6 C 0,0 C 0,0 C 96 % 1009,1 hPa 0,0 l/m 0 min 0 min 0 W/m 0,0 km/h (0 Bft) 100,00 %
10.11.2019 02:12 1,6 C 0,0 C -0,6 C 96 % 1009,1 hPa 0,0 l/m 0 min 0 min 0 W/m 0,0 km/h (0 Bft) 100,00 %
10.11.2019 02:14 1,5 C -0,6 C -0,6 C 96 % 1009,1 hPa 0,0 l/m 0 min 0 min 0 W/m 0,0 km/h (0 Bft) 56,52 %
10.11.2019 02:16 1,5 C -0,6 C -0,6 C 96 % 1009,1 hPa 0,0 l/m 0 min 0 min 0 W/m 0,0 km/h (0 Bft) 100,00 %
10.11.2019 02:18 1,5 C -0,6 C -0,6 C 96 % 1009,1 hPa 0,0 l/m 0 min 0 min 0 W/m 0,0 km/h (0 Bft) 97,87 %
10.11.2019 02:20 1,4 C -0,6 C -0,6 C 96 % 1009,2 hPa 0,0 l/m 0 min 0 min 0 W/m 0,0 km/h (0 Bft) 97,87 %
10.11.2019 02:22 1,4 C -0,6 C -1,1 C 96 % 1009,1 hPa 0,0 l/m 0 min 0 min 0 W/m 0,0 km/h (0 Bft) 100,00 %
10.11.2019 02:24 1,4 C -1,1 C -1,1 C 96 % 1009,1 hPa 0,0 l/m 0 min 0 min 0 W/m 0,0 km/h (0 Bft) 100,00 %
10.11.2019 02:26 1,4 C -1,1 C -1,1 C 96 % 1009,2 hPa 0,0 l/m 0 min 0 min 0 W/m 0,0 km/h (0 Bft) 100,00 %
10.11.2019 02:28 1,3 C -0,6 C -1,1 C 96 % 1009,2 hPa 0,0 l/m 0 min 0 min 0 W/m 0,0 km/h (0 Bft) 100,00 %
10.11.2019 02:30 1,3 C -0,6 C -1,1 C 96 % 1009,2 hPa 0,0 l/m 0 min 0 min 0 W/m 0,0 km/h (0 Bft) 100,00 %
10.11.2019 02:32 1,3 C -0,6 C -1,1 C 96 % 1009,2 hPa 0,0 l/m 0 min 0 min 0 W/m 0,0 km/h (0 Bft) 100,00 %
10.11.2019 02:34 1,2 C -0,6 C -1,1 C 96 % 1009,2 hPa 0,0 l/m 0 min 0 min 0 W/m 0,0 km/h (0 Bft) 95,74 %
10.11.2019 02:36 1,2 C -0,6 C -1,1 C 96 % 1009,2 hPa 0,0 l/m 0 min 0 min 0 W/m 0,0 km/h (0 Bft) 97,83 %
10.11.2019 02:38 1,2 C -0,6 C -1,1 C 96 % 1009,2 hPa 0,0 l/m 0 min 0 min 0 W/m 3,2 km/h (1 Bft) 97,87 %
10.11.2019 02:40 1,1 C -0,6 C -1,1 C 96 % 1009,2 hPa 0,0 l/m 0 min 0 min 0 W/m 0,0 km/h (0 Bft) 97,87 %
10.11.2019 02:42 1,1 C -0,6 C -1,1 C 96 % 1009,3 hPa 0,0 l/m 0 min 0 min 0 W/m 0,0 km/h (0 Bft) 97,87 %
10.11.2019 02:44 1,1 C -0,6 C -1,1 C 96 % 1009,2 hPa 0,0 l/m 0 min 0 min 0 W/m 3,2 km/h (1 Bft) 97,87 %
10.11.2019 02:46 1,0 C -0,6 C -1,1 C 96 % 1009,2 hPa 0,0 l/m 0 min 0 min 0 W/m 0,0 km/h (0 Bft) 97,87 %
10.11.2019 02:48 1,0 C -0,6 C -1,1 C 96 % 1009,2 hPa 0,0 l/m 0 min 0 min 0 W/m 0,0 km/h (0 Bft) 97,83 %
10.11.2019 02:50 0,9 C 0,0 C -1,1 C 96 % 1009,3 hPa 0,0 l/m 0 min 0 min 0 W/m 0,0 km/h (0 Bft) 97,87 %
10.11.2019 02:52 0,9 C 0,0 C -0,6 C 96 % 1009,3 hPa 0,0 l/m 0 min 0 min 0 W/m 0,0 km/h (0 Bft) 95,74 %
10.11.2019 02:54 0,9 C -0,6 C -0,6 C 96 % 1009,3 hPa 0,0 l/m 0 min 0 min 0 W/m 0,0 km/h (0 Bft) 97,87 %
10.11.2019 02:56 0,9 C -0,6 C -1,1 C 96 % 1009,3 hPa 0,0 l/m 0 min 0 min 0 W/m 0,0 km/h (0 Bft) 97,87 %
10.11.2019 02:58 0,8 C -1,1 C -1,1 C 96 % 1009,3 hPa 0,0 l/m 0 min 0 min 0 W/m 0,0 km/h (0 Bft) 97,83 %
10.11.2019 03:00 0,8 C -1,1 C -1,1 C 96 % 1009,3 hPa 0,0 l/m 0 min 0 min 0 W/m 0,0 km/h (0 Bft) 97,87 %
10.11.2019 03:02 0,8 C -1,1 C -1,1 C 96 % 1009,3 hPa 0,0 l/m 0 min 0 min 0 W/m 0,0 km/h (0 Bft) 97,87 %
10.11.2019 03:04 0,8 C -1,1 C -1,7 C 96 % 1009,4 hPa 0,0 l/m 0 min 0 min 0 W/m 0,0 km/h (0 Bft) 97,87 %
10.11.2019 03:06 0,7 C -1,1 C -1,7 C 96 % 1009,3 hPa 0,0 l/m 0 min 0 min 0 W/m 0,0 km/h (0 Bft) 97,87 %
10.11.2019 03:08 0,7 C -1,1 C -1,7 C 96 % 1009,3 hPa 0,0 l/m 0 min 0 min 0 W/m 0,0 km/h (0 Bft) 97,62 %
10.11.2019 03:10 0,7 C -1,1 C -1,7 C 96 % 1009,4 hPa 0,0 l/m 0 min 0 min 0 W/m 0,0 km/h (0 Bft) 97,87 %
10.11.2019 03:12 0,6 C -1,1 C -1,7 C 96 % 1009,3 hPa 0,0 l/m 0 min 0 min 0 W/m 0,0 km/h (0 Bft) 93,62 %
10.11.2019 03:14 0,6 C -1,1 C -1,7 C 96 % 1009,3 hPa 0,0 l/m 0 min 0 min 0 W/m 0,0 km/h (0 Bft) 93,62 %
10.11.2019 03:16 0,6 C -1,1 C -1,7 C 96 % 1009,3 hPa 0,0 l/m 0 min 0 min 0 W/m 0,0 km/h (0 Bft) 93,62 %
10.11.2019 03:18 0,6 C -1,1 C -1,7 C 96 % 1009,3 hPa 0,0 l/m 0 min 0 min 0 W/m 0,0 km/h (0 Bft) 97,83 %
10.11.2019 03:20 0,6 C -1,1 C -1,7 C 96 % 1009,3 hPa 0,0 l/m 0 min 0 min 0 W/m 0,0 km/h (0 Bft) 95,74 %
10.11.2019 03:22 0,6 C -1,1 C -1,7 C 96 % 1009,3 hPa 0,0 l/m 0 min 0 min 0 W/m 0,0 km/h (0 Bft) 93,62 %
10.11.2019 03:24 0,6 C -1,7 C -1,7 C 96 % 1009,3 hPa 0,0 l/m 0 min 0 min 0 W/m 0,0 km/h (0 Bft) 95,74 %
10.11.2019 03:26 0,5 C -1,7 C -1,7 C 96 % 1009,4 hPa 0,0 l/m 0 min 0 min 0 W/m 0,0 km/h (0 Bft) 95,74 %
10.11.2019 03:28 0,5 C -1,7 C -1,7 C 96 % 1009,4 hPa 0,0 l/m 0 min 0 min 0 W/m 0,0 km/h (0 Bft) 95,74 %
10.11.2019 03:30 0,4 C -1,7 C -1,7 C 96 % 1009,4 hPa 0,0 l/m 0 min 0 min 0 W/m 0,0 km/h (0 Bft) 95,65 %
10.11.2019 03:32 0,4 C -1,7 C -1,7 C 96 % 1009,4 hPa 0,0 l/m 0 min 0 min 0 W/m 0,0 km/h (0 Bft) 95,74 %
10.11.2019 03:34 0,4 C -1,7 C -1,7 C 96 % 1009,4 hPa 0,0 l/m 0 min 0 min 0 W/m 0,0 km/h (0 Bft) 93,62 %
10.11.2019 03:36 0,3 C -1,7 C -1,7 C 96 % 1009,4 hPa 0,0 l/m 0 min 0 min 0 W/m 0,0 km/h (0 Bft) 95,74 %
10.11.2019 03:38 0,3 C -1,7 C -2,2 C 96 % 1009,4 hPa 0,0 l/m 0 min 0 min 0 W/m 0,0 km/h (0 Bft) 96,00 %
10.11.2019 03:40 0,3 C -1,7 C -2,2 C 96 % 1009,5 hPa 0,0 l/m 0 min 0 min 0 W/m 0,0 km/h (0 Bft) 95,65 %
10.11.2019 03:42 0,3 C -1,7 C -2,2 C 96 % 1009,4 hPa 0,0 l/m 0 min 0 min 0 W/m 0,0 km/h (0 Bft) 93,62 %
10.11.2019 03:44 0,2 C -1,7 C -2,2 C 96 % 1009,4 hPa 0,0 l/m 0 min 0 min 0 W/m 0,0 km/h (0 Bft) 95,74 %
10.11.2019 03:46 0,2 C -1,7 C -2,2 C 96 % 1009,4 hPa 0,0 l/m 0 min 0 min 0 W/m 0,0 km/h (0 Bft) 95,74 %
10.11.2019 03:48 0,2 C -1,1 C -1,7 C 96 % 1009,4 hPa 0,0 l/m 0 min 0 min 0 W/m 0,0 km/h (0 Bft) 93,62 %
10.11.2019 03:50 0,1 C -1,1 C -1,7 C 96 % 1009,4 hPa 0,0 l/m 0 min 0 min 0 W/m 3,2 km/h (1 Bft) 93,62 %
10.11.2019 03:52 0,1 C -1,1 C -1,7 C 96 % 1009,4 hPa 0,0 l/m 0 min 0 min 0 W/m 3,2 km/h (1 Bft) 100,00 %
10.11.2019 03:54 0,1 C -0,6 C -1,7 C 96 % 1009,4 hPa 0,0 l/m 0 min 0 min 0 W/m 0,0 km/h (0 Bft) 97,87 %
10.11.2019 03:56 0,1 C -0,6 C -1,7 C 96 % 1009,4 hPa 0,0 l/m 0 min 0 min 0 W/m 0,0 km/h (0 Bft) 100,00 %
10.11.2019 03:58 0,1 C -0,6 C -1,1 C 96 % 1009,5 hPa 0,0 l/m 0 min 0 min 0 W/m 3,2 km/h (1 Bft) 100,00 %
10.11.2019 04:00 0,1 C -1,1 C -1,1 C 96 % 1009,5 hPa 0,0 l/m 0 min 0 min 0 W/m 0,0 km/h (0 Bft) 100,00 %
10.11.2019 04:02 0,1 C -1,1 C -1,1 C 96 % 1009,5 hPa 0,0 l/m 0 min 0 min 0 W/m 0,0 km/h (0 Bft) 100,00 %
10.11.2019 04:07 0,1 C -1,1 C -1,7 C 96 % 1009,6 hPa 0,0 l/m 0 min 0 min 0 W/m 0,0 km/h (0 Bft) 97,73 %
10.11.2019 04:08 0,1 C -1,1 C -1,7 C 96 % 1009,6 hPa 0,0 l/m 0 min 0 min 0 W/m 0,0 km/h (0 Bft) 100,00 %
10.11.2019 04:10 0,1 C -1,1 C -1,7 C 96 % 1009,5 hPa 0,0 l/m 0 min 0 min 0 W/m 0,0 km/h (0 Bft) 100,00 %
10.11.2019 04:12 0,0 C -1,1 C -1,7 C 96 % 1009,6 hPa 0,0 l/m 0 min 0 min 0 W/m 0,0 km/h (0 Bft) 100,00 %
10.11.2019 04:14 0,0 C -1,1 C -1,7 C 96 % 1009,6 hPa 0,0 l/m 0 min 0 min 0 W/m 0,0 km/h (0 Bft) 95,74 %
10.11.2019 04:16 0,0 C -1,1 C -1,7 C 96 % 1009,6 hPa 0,0 l/m 0 min 0 min 0 W/m 0,0 km/h (0 Bft) 97,83 %
10.11.2019 04:18 0,0 C -1,1 C -1,7 C 96 % 1009,6 hPa 0,0 l/m 0 min 0 min 0 W/m 0,0 km/h (0 Bft) 97,87 %
10.11.2019 04:20 0,0 C -1,7 C -1,7 C 96 % 1009,6 hPa 0,0 l/m 0 min 0 min 0 W/m 0,0 km/h (0 Bft) 97,87 %
10.11.2019 04:22 0,0 C -1,7 C -1,7 C 96 % 1009,6 hPa 0,0 l/m 0 min 0 min 0 W/m 0,0 km/h (0 Bft) 97,87 %
10.11.2019 04:24 0,0 C -1,7 C -1,7 C 96 % 1009,6 hPa 0,0 l/m 0 min 0 min 0 W/m 0,0 km/h (0 Bft) 97,87 %
10.11.2019 04:26 0,0 C -1,7 C -1,7 C 96 % 1009,6 hPa 0,0 l/m 0 min 0 min 0 W/m 0,0 km/h (0 Bft) 95,74 %
10.11.2019 04:28 0,0 C -1,7 C -1,7 C 96 % 1009,7 hPa 0,0 l/m 0 min 0 min 0 W/m 0,0 km/h (0 Bft) 97,83 %
10.11.2019 04:30 -0,1 C -1,7 C -1,7 C 96 % 1009,7 hPa 0,0 l/m 0 min 0 min 0 W/m 0,0 km/h (0 Bft) 97,87 %
10.11.2019 04:32 -0,1 C -1,7 C -2,2 C 96 % 1009,7 hPa 0,0 l/m 0 min 0 min 0 W/m 0,0 km/h (0 Bft) 97,87 %
10.11.2019 04:34 -0,1 C -1,7 C -1,7 C 96 % 1009,8 hPa 0,0 l/m 0 min 0 min 0 W/m 0,0 km/h (0 Bft) 97,87 %
10.11.2019 04:36 -0,1 C -1,7 C -1,7 C 96 % 1009,8 hPa 0,0 l/m 0 min 0 min 0 W/m 0,0 km/h (0 Bft) 93,62 %
10.11.2019 04:38 -0,1 C -1,7 C -2,2 C 96 % 1009,8 hPa 0,0 l/m 0 min 0 min 0 W/m 0,0 km/h (0 Bft) 97,87 %
10.11.2019 04:40 -0,1 C -1,7 C -2,2 C 96 % 1009,8 hPa 0,0 l/m 0 min 0 min 0 W/m 0,0 km/h (0 Bft) 97,83 %
10.11.2019 04:42 -0,1 C -1,7 C -2,2 C 96 % 1009,8 hPa 0,0 l/m 0 min 0 min 0 W/m 0,0 km/h (0 Bft) 97,87 %
10.11.2019 04:44 -0,1 C -2,2 C -2,2 C 96 % 1009,8 hPa 0,0 l/m 0 min 0 min 0 W/m 0,0 km/h (0 Bft) 95,74 %
10.11.2019 04:46 -0,2 C -2,2 C -2,2 C 96 % 1009,8 hPa 0,0 l/m 0 min 0 min 0 W/m 0,0 km/h (0 Bft) 95,74 %
10.11.2019 04:48 -0,2 C -2,2 C -2,2 C 96 % 1009,8 hPa 0,0 l/m 0 min 0 min 0 W/m 0,0 km/h (0 Bft) 97,87 %
10.11.2019 04:50 -0,2 C -2,2 C -2,2 C 96 % 1009,8 hPa 0,0 l/m 0 min 0 min 0 W/m 0,0 km/h (0 Bft) 97,83 %
10.11.2019 04:52 -0,2 C -2,2 C -2,2 C 96 % 1009,8 hPa 0,0 l/m 0 min 0 min 0 W/m 0,0 km/h (0 Bft) 97,87 %
10.11.2019 04:54 -0,2 C -2,2 C -2,2 C 96 % 1009,8 hPa 0,0 l/m 0 min 0 min 0 W/m 0,0 km/h (0 Bft) 95,74 %
10.11.2019 04:56 -0,3 C -2,2 C -2,2 C 96 % 1009,8 hPa 0,0 l/m 0 min 0 min 0 W/m 0,0 km/h (0 Bft) 97,87 %
10.11.2019 04:58 -0,3 C -2,2 C -2,2 C 96 % 1009,9 hPa 0,0 l/m 0 min 0 min 0 W/m 0,0 km/h (0 Bft) 97,87 %
10.11.2019 05:00 -0,3 C -2,2 C -2,2 C 96 % 1009,9 hPa 0,0 l/m 0 min 0 min 0 W/m 0,0 km/h (0 Bft) 97,87 %
10.11.2019 05:02 -0,3 C -1,7 C -2,2 C 96 % 1009,9 hPa 0,0 l/m 0 min 0 min 0 W/m 0,0 km/h (0 Bft) 100,00 %
10.11.2019 05:04 -0,3 C -1,1 C -2,2 C 96 % 1009,9 hPa 0,0 l/m 0 min 0 min 0 W/m 0,0 km/h (0 Bft) 100,00 %
10.11.2019 05:06 -0,4 C -1,7 C -2,2 C 96 % 1010,0 hPa 0,0 l/m 0 min 0 min 0 W/m 0,0 km/h (0 Bft) 97,87 %
10.11.2019 05:08 -0,4 C -1,7 C -2,2 C 96 % 1010,0 hPa 0,0 l/m 0 min 0 min 0 W/m 0,0 km/h (0 Bft) 97,87 %
10.11.2019 05:10 -0,4 C -1,7 C -2,2 C 96 % 1010,0 hPa 0,0 l/m 0 min 0 min 0 W/m 0,0 km/h (0 Bft) 97,87 %
10.11.2019 05:12 -0,4 C -1,7 C -2,2 C 96 % 1010,0 hPa 0,0 l/m 0 min 0 min 0 W/m 0,0 km/h (0 Bft) 100,00 %
10.11.2019 05:14 -0,4 C -1,7 C -2,2 C 96 % 1010,1 hPa 0,0 l/m 0 min 0 min 0 W/m 0,0 km/h (0 Bft) 95,65 %
10.11.2019 05:16 -0,4 C -2,2 C -2,2 C 96 % 1010,0 hPa 0,0 l/m 0 min 0 min 0 W/m 0,0 km/h (0 Bft) 97,87 %
10.11.2019 05:18 -0,5 C -2,2 C -2,2 C 96 % 1010,0 hPa 0,0 l/m 0 min 0 min 0 W/m 0,0 km/h (0 Bft) 100,00 %
10.11.2019 05:20 -0,5 C -2,2 C -2,2 C 96 % 1010,1 hPa 0,0 l/m 0 min 0 min 0 W/m 0,0 km/h (0 Bft) 97,87 %
10.11.2019 05:22 -0,5 C -1,7 C -2,2 C 96 % 1010,1 hPa 0,0 l/m 0 min 0 min 0 W/m 0,0 km/h (0 Bft) 97,87 %
10.11.2019 05:24 -0,5 C -1,7 C -2,2 C 96 % 1010,1 hPa 0,0 l/m 0 min 0 min 0 W/m 0,0 km/h (0 Bft) 95,65 %
10.11.2019 05:26 -0,5 C -2,2 C -2,2 C 96 % 1010,1 hPa 0,0 l/m 0 min 0 min 0 W/m 0,0 km/h (0 Bft) 100,00 %
10.11.2019 05:28 -0,5 C -2,2 C -2,2 C 96 % 1010,1 hPa 0,0 l/m 0 min 0 min 0 W/m 0,0 km/h (0 Bft) 100,00 %
10.11.2019 05:30 -0,6 C -2,2 C -2,2 C 96 % 1010,1 hPa 0,0 l/m 0 min 0 min 0 W/m 0,0 km/h (0 Bft) 97,87 %
10.11.2019 05:32 -0,6 C -2,2 C -2,2 C 96 % 1010,0 hPa 0,0 l/m 0 min 0 min 0 W/m 0,0 km/h (0 Bft) 95,74 %
10.11.2019 05:34 -0,6 C -2,2 C -2,2 C 96 % 1010,1 hPa 0,0 l/m 0 min 0 min 0 W/m 0,0 km/h (0 Bft) 97,87 %
10.11.2019 05:36 -0,6 C -2,2 C -2,2 C 96 % 1010,1 hPa 0,0 l/m 0 min 0 min 0 W/m 0,0 km/h (0 Bft) 97,83 %
10.11.2019 05:38 -0,6 C -2,2 C -2,2 C 96 % 1010,1 hPa 0,0 l/m 0 min 0 min 0 W/m 0,0 km/h (0 Bft) 95,74 %
10.11.2019 05:40 -0,7 C -2,2 C -2,2 C 96 % 1010,1 hPa 0,0 l/m 0 min 0 min 0 W/m 0,0 km/h (0 Bft) 97,87 %
10.11.2019 05:42 -0,7 C -2,2 C -2,2 C 96 % 1010,1 hPa 0,0 l/m 0 min 0 min 0 W/m 0,0 km/h (0 Bft) 97,87 %
10.11.2019 05:44 -0,7 C -2,2 C -2,2 C 96 % 1010,2 hPa 0,0 l/m 0 min 0 min 0 W/m 0,0 km/h (0 Bft) 97,87 %
10.11.2019 05:46 -0,7 C -2,2 C -2,2 C 96 % 1010,1 hPa 0,0 l/m 0 min 0 min 0 W/m 0,0 km/h (0 Bft) 95,74 %
10.11.2019 05:48 -0,7 C -2,2 C -2,2 C 96 % 1010,2 hPa 0,0 l/m 0 min 0 min 0 W/m 0,0 km/h (0 Bft) 97,83 %
10.11.2019 05:50 -0,7 C -2,2 C -2,2 C 96 % 1010,2 hPa 0,0 l/m 0 min 0 min 0 W/m 0,0 km/h (0 Bft) 97,87 %
10.11.2019 05:52 -0,8 C -2,2 C -2,2 C 96 % 1010,3 hPa 0,0 l/m 0 min 0 min 0 W/m 0,0 km/h (0 Bft) 97,87 %
10.11.2019 05:54 -0,8 C -2,2 C -2,2 C 96 % 1010,3 hPa 0,0 l/m 0 min 0 min 0 W/m 0,0 km/h (0 Bft) 95,74 %
10.11.2019 05:56 -0,8 C -2,2 C -2,2 C 96 % 1010,2 hPa 0,0 l/m 0 min 0 min 0 W/m 0,0 km/h (0 Bft) 97,87 %
10.11.2019 05:58 -0,8 C -2,2 C -2,2 C 96 % 1010,3 hPa 0,0 l/m 0 min 0 min 0 W/m 0,0 km/h (0 Bft) 97,87 %
10.11.2019 06:00 -0,8 C -2,2 C -2,8 C 96 % 1010,3 hPa 0,0 l/m 0 min 0 min 0 W/m 0,0 km/h (0 Bft) 97,83 %
10.11.2019 06:02 -0,8 C -2,2 C -2,8 C 96 % 1010,3 hPa 0,0 l/m 0 min 0 min 0 W/m 0,0 km/h (0 Bft) 100,00 %
10.11.2019 06:04 -0,9 C -2,2 C -2,8 C 96 % 1010,3 hPa 0,0 l/m 0 min 0 min 0 W/m 0,0 km/h (0 Bft) 100,00 %
10.11.2019 06:08 -0,9 C -2,2 C -2,8 C 96 % 1010,3 hPa 0,0 l/m 0 min 0 min 0 W/m 0,0 km/h (0 Bft) 100,00 %
10.11.2019 06:10 -0,9 C -2,2 C -2,8 C 96 % 1010,4 hPa 0,0 l/m 0 min 0 min 0 W/m 0,0 km/h (0 Bft) 100,00 %
10.11.2019 06:12 -0,9 C -2,8 C -2,8 C 96 % 1010,4 hPa 0,0 l/m 0 min 0 min 0 W/m 0,0 km/h (0 Bft) 97,83 %
10.11.2019 06:14 -0,9 C -2,8 C -2,8 C 96 % 1010,4 hPa 0,0 l/m 0 min 0 min 0 W/m 0,0 km/h (0 Bft) 100,00 %
10.11.2019 06:16 -1,0 C -2,8 C -2,8 C 96 % 1010,4 hPa 0,0 l/m 0 min 0 min 0 W/m 0,0 km/h (0 Bft) 97,87 %
10.11.2019 06:18 -1,0 C -2,8 C -2,8 C 96 % 1010,4 hPa 0,0 l/m 0 min 0 min 0 W/m 0,0 km/h (0 Bft) 100,00 %
10.11.2019 06:20 -1,0 C -2,8 C -2,8 C 96 % 1010,5 hPa 0,0 l/m 0 min 0 min 0 W/m 0,0 km/h (0 Bft) 100,00 %
10.11.2019 06:22 -1,1 C -2,2 C -2,8 C 96 % 1010,5 hPa 0,0 l/m 0 min 0 min 0 W/m 0,0 km/h (0 Bft) 97,83 %
10.11.2019 06:24 -1,1 C -2,8 C -2,8 C 96 % 1010,5 hPa 0,0 l/m 0 min 0 min 0 W/m 0,0 km/h (0 Bft) 100,00 %
10.11.2019 06:26 -1,1 C -2,8 C -2,8 C 96 % 1010,5 hPa 0,0 l/m 0 min 0 min 0 W/m 0,0 km/h (0 Bft) 100,00 %
10.11.2019 06:28 -1,1 C -2,8 C -2,8 C 96 % 1010,5 hPa 0,0 l/m 0 min 0 min 0 W/m 0,0 km/h (0 Bft) 100,00 %
10.11.2019 06:30 -1,1 C -2,2 C -2,2 C 96 % 1010,5 hPa 0,0 l/m 0 min 0 min 0 W/m 0,0 km/h (0 Bft) 100,00 %
10.11.2019 06:32 -1,1 C -2,2 C -2,2 C 96 % 1010,5 hPa 0,0 l/m 0 min 0 min 0 W/m 0,0 km/h (0 Bft) 100,00 %
10.11.2019 06:34 -1,1 C -2,2 C -2,2 C 96 % 1010,5 hPa 0,0 l/m 0 min 0 min 0 W/m 0,0 km/h (0 Bft) 100,00 %
10.11.2019 06:36 -1,2 C -2,2 C -2,2 C 96 % 1010,6 hPa 0,0 l/m 0 min 0 min 0 W/m 0,0 km/h (0 Bft) 100,00 %
10.11.2019 06:38 -1,2 C -2,2 C -2,2 C 96 % 1010,6 hPa 0,0 l/m 0 min 0 min 0 W/m 0,0 km/h (0 Bft) 100,00 %
10.11.2019 06:40 -1,2 C -2,2 C -2,2 C 96 % 1010,6 hPa 0,0 l/m 0 min 0 min 0 W/m 0,0 km/h (0 Bft) 100,00 %
10.11.2019 06:42 -1,2 C -2,2 C -2,2 C 96 % 1010,6 hPa 0,0 l/m 0 min 0 min 0 W/m 0,0 km/h (0 Bft) 100,00 %
10.11.2019 06:44 -1,2 C -1,7 C -2,2 C 96 % 1010,7 hPa 0,0 l/m 0 min 0 min 0 W/m 3,2 km/h (1 Bft) 97,87 %
10.11.2019 06:46 -1,2 C -1,1 C -2,2 C 96 % 1010,7 hPa 0,0 l/m 0 min 0 min 0 W/m 0,0 km/h (0 Bft) 100,00 %
10.11.2019 06:48 -1,1 C -1,1 C -1,7 C 96 % 1010,8 hPa 0,0 l/m 0 min 0 min 0 W/m 3,2 km/h (1 Bft) 100,00 %
10.11.2019 06:50 -1,1 C -1,1 C -1,7 C 96 % 1010,9 hPa 0,0 l/m 0 min 0 min 0 W/m 0,0 km/h (0 Bft) 100,00 %
10.11.2019 06:52 -1,1 C -1,1 C -1,7 C 96 % 1010,9 hPa 0,0 l/m 0 min 0 min 0 W/m 0,0 km/h (0 Bft) 100,00 %
10.11.2019 06:54 -1,0 C -1,1 C -1,7 C 96 % 1010,9 hPa 0,0 l/m 0 min 0 min 0 W/m 0,0 km/h (0 Bft) 100,00 %
10.11.2019 06:56 -0,9 C -1,1 C -1,7 C 96 % 1010,9 hPa 0,0 l/m 0 min 0 min 0 W/m 0,0 km/h (0 Bft) 97,87 %
10.11.2019 06:58 -0,9 C -1,1 C -1,7 C 96 % 1011,0 hPa 0,0 l/m 0 min 0 min 0 W/m 0,0 km/h (0 Bft) 97,83 %
10.11.2019 07:00 -0,9 C -1,1 C -1,1 C 96 % 1011,0 hPa 0,0 l/m 0 min 0 min 0 W/m 6,4 km/h (2 Bft) 97,87 %
10.11.2019 07:02 -0,8 C -1,1 C -1,1 C 96 % 1011,0 hPa 0,0 l/m 0 min 0 min 0 W/m 3,2 km/h (1 Bft) 95,74 %
10.11.2019 07:04 -0,7 C -0,6 C -1,1 C 97 % 1011,1 hPa 0,0 l/m 0 min 0 min 0 W/m 6,4 km/h (2 Bft) 95,74 %
10.11.2019 07:06 -0,7 C -0,6 C -1,1 C 97 % 1011,1 hPa 0,0 l/m 0 min 0 min 0 W/m 3,2 km/h (1 Bft) 97,87 %
10.11.2019 07:08 -0,6 C -0,6 C -1,1 C 97 % 1011,1 hPa 0,0 l/m 0 min 0 min 0 W/m 3,2 km/h (1 Bft) 95,74 %
10.11.2019 07:10 -0,5 C -0,6 C -1,1 C 97 % 1011,2 hPa 0,0 l/m 0 min 0 min 0 W/m 0,0 km/h (0 Bft) 95,65 %
10.11.2019 07:12 -0,4 C -0,6 C -1,1 C 97 % 1011,2 hPa 0,0 l/m 0 min 0 min 0 W/m 0,0 km/h (0 Bft) 91,49 %
10.11.2019 07:14 -0,4 C -0,6 C -1,1 C 97 % 1011,3 hPa 0,0 l/m 0 min 0 min 0 W/m 0,0 km/h (0 Bft) 95,74 %
10.11.2019 07:16 -0,3 C -1,1 C -1,1 C 97 % 1011,3 hPa 0,0 l/m 0 min 0 min 0 W/m 0,0 km/h (0 Bft) 95,74 %
10.11.2019 07:18 -0,3 C -0,6 C -1,1 C 97 % 1011,4 hPa 0,0 l/m 0 min 0 min 0 W/m 0,0 km/h (0 Bft) 95,74 %
10.11.2019 07:20 -0,2 C -0,6 C -1,1 C 97 % 1011,3 hPa 0,0 l/m 0 min 0 min 0 W/m 0,0 km/h (0 Bft) 93,48 %
10.11.2019 07:22 -0,2 C -0,6 C -1,1 C 97 % 1011,3 hPa 0,0 l/m 0 min 0 min 0 W/m 0,0 km/h (0 Bft) 91,49 %
10.11.2019 07:24 -0,2 C -1,1 C -1,1 C 97 % 1011,4 hPa 0,0 l/m 0 min 0 min 0 W/m 0,0 km/h (0 Bft) 95,74 %
10.11.2019 07:26 -0,1 C -1,1 C -1,1 C 97 % 1011,5 hPa 0,0 l/m 0 min 0 min 0 W/m 0,0 km/h (0 Bft) 95,74 %
10.11.2019 07:28 -0,1 C -0,6 C -1,1 C 97 % 1011,5 hPa 0,0 l/m 0 min 0 min 0 W/m 3,2 km/h (1 Bft) 93,62 %
10.11.2019 07:30 -0,1 C -1,1 C -1,1 C 97 % 1011,5 hPa 0,0 l/m 0 min 0 min 0 W/m 0,0 km/h (0 Bft) 89,36 %
10.11.2019 07:32 0,0 C -1,1 C -1,1 C 97 % 1011,5 hPa 0,0 l/m 0 min 0 min 0 W/m 3,2 km/h (1 Bft) 93,48 %
10.11.2019 07:34 0,0 C -1,1 C -1,1 C 97 % 1011,6 hPa 0,0 l/m 0 min 0 min 0 W/m 6,4 km/h (2 Bft) 89,36 %
10.11.2019 07:36 0,1 C -0,6 C -1,1 C 97 % 1011,6 hPa 0,0 l/m 0 min 0 min 0 W/m 6,4 km/h (2 Bft) 91,49 %
10.11.2019 07:38 0,1 C -0,6 C -0,6 C 97 % 1011,6 hPa 0,0 l/m 0 min 0 min 0 W/m 6,4 km/h (2 Bft) 93,62 %
10.11.2019 07:40 0,1 C -0,6 C -0,6 C 97 % 1011,6 hPa 0,0 l/m 0 min 0 min 0 W/m 6,4 km/h (2 Bft) 93,62 %
10.11.2019 07:42 0,1 C -0,6 C -0,6 C 97 % 1011,7 hPa 0,0 l/m 0 min 0 min 0 W/m 3,2 km/h (1 Bft) 93,62 %
10.11.2019 07:44 0,2 C -0,6 C -0,6 C 97 % 1011,7 hPa 0,0 l/m 0 min 0 min 3 W/m 6,4 km/h (2 Bft) 93,48 %
10.11.2019 07:46 0,2 C -0,6 C -0,6 C 97 % 1011,8 hPa 0,0 l/m 0 min 0 min 5 W/m 3,2 km/h (1 Bft) 93,62 %
10.11.2019 07:48 0,2 C -0,6 C -0,6 C 97 % 1011,9 hPa 0,0 l/m 0 min 0 min 5 W/m 0,0 km/h (0 Bft) 89,36 %
10.11.2019 07:50 0,2 C -0,6 C -0,6 C 97 % 1011,9 hPa 0,0 l/m 0 min 0 min 7 W/m 0,0 km/h (0 Bft) 93,62 %
10.11.2019 07:52 0,2 C -0,6 C -0,6 C 97 % 1012,0 hPa 0,0 l/m 0 min 0 min 7 W/m 0,0 km/h (0 Bft) 93,62 %
10.11.2019 07:54 0,3 C -0,6 C -0,6 C 97 % 1011,9 hPa 0,0 l/m 0 min 0 min 9 W/m 3,2 km/h (1 Bft) 95,74 %
10.11.2019 07:56 0,3 C -0,6 C -0,6 C 97 % 1012,0 hPa 0,0 l/m 0 min 0 min 9 W/m 3,2 km/h (1 Bft) 93,48 %
10.11.2019 07:58 0,3 C -0,6 C -0,6 C 97 % 1012,0 hPa 0,0 l/m 0 min 0 min 11 W/m 3,2 km/h (1 Bft) 95,74 %
10.11.2019 08:00 0,3 C -0,6 C -0,6 C 97 % 1011,9 hPa 0,0 l/m 0 min 0 min 11 W/m 3,2 km/h (1 Bft) 100,00 %
10.11.2019 08:02 0,3 C -0,6 C -0,6 C 97 % 1011,9 hPa 0,0 l/m 0 min 0 min 12 W/m 3,2 km/h (1 Bft) 97,87 %
10.11.2019 08:04 0,3 C -0,6 C -0,6 C 97 % 1011,9 hPa 0,0 l/m 0 min 0 min 12 W/m 3,2 km/h (1 Bft) 97,87 %
10.11.2019 08:06 0,3 C -0,6 C -0,6 C 97 % 1011,9 hPa 0,0 l/m 0 min 0 min 13 W/m 3,2 km/h (1 Bft) 93,48 %
10.11.2019 08:08 0,3 C -0,6 C -0,6 C 97 % 1011,9 hPa 0,0 l/m 0 min 0 min 14 W/m 3,2 km/h (1 Bft) 95,74 %
10.11.2019 08:10 0,3 C -0,6 C -0,6 C 97 % 1011,9 hPa 0,0 l/m 0 min 0 min 14 W/m 3,2 km/h (1 Bft) 100,00 %
10.11.2019 08:12 0,3 C -0,6 C -0,6 C 97 % 1011,9 hPa 0,0 l/m 0 min 0 min 16 W/m 3,2 km/h (1 Bft) 100,00 %
10.11.2019 08:14 0,3 C -0,6 C -0,6 C 97 % 1012,0 hPa 0,0 l/m 0 min 0 min 16 W/m 3,2 km/h (1 Bft) 100,00 %
10.11.2019 08:16 0,4 C -0,6 C -0,6 C 97 % 1012,0 hPa 0,0 l/m 0 min 0 min 18 W/m 0,0 km/h (0 Bft) 97,87 %
10.11.2019 08:18 0,4 C -0,6 C -0,6 C 97 % 1012,0 hPa 0,0 l/m 0 min 0 min 18 W/m 3,2 km/h (1 Bft) 100,00 %
10.11.2019 08:20 0,4 C -0,6 C -0,6 C 97 % 1012,0 hPa 0,0 l/m 0 min 0 min 19 W/m 3,2 km/h (1 Bft) 100,00 %
10.11.2019 08:22 0,4 C -0,6 C -0,6 C 97 % 1012,0 hPa 0,0 l/m 0 min 0 min 19 W/m 3,2 km/h (1 Bft) 100,00 %
10.11.2019 08:24 0,4 C -0,6 C -0,6 C 97 % 1012,0 hPa 0,0 l/m 0 min 0 min 20 W/m 3,2 km/h (1 Bft) 97,87 %
10.11.2019 08:26 0,4 C -0,6 C -0,6 C 97 % 1012,1 hPa 0,0 l/m 0 min 0 min 21 W/m 3,2 km/h (1 Bft) 100,00 %
10.11.2019 08:28 0,4 C -0,6 C -0,6 C 97 % 1012,1 hPa 0,0 l/m 0 min 0 min 21 W/m 3,2 km/h (1 Bft) 100,00 %
10.11.2019 08:30 0,4 C -0,6 C -0,6 C 97 % 1012,1 hPa 0,0 l/m 0 min 0 min 23 W/m 3,2 km/h (1 Bft) 100,00 %
10.11.2019 08:32 0,4 C 0,0 C -0,6 C 98 % 1012,2 hPa 0,0 l/m 0 min 0 min 23 W/m 6,4 km/h (2 Bft) 100,00 %
10.11.2019 08:34 0,5 C 0,0 C -0,6 C 98 % 1012,2 hPa 0,0 l/m 0 min 0 min 25 W/m 6,4 km/h (2 Bft) 100,00 %
10.11.2019 08:36 0,5 C 0,0 C -0,6 C 98 % 1012,2 hPa 0,0 l/m 0 min 0 min 25 W/m 3,2 km/h (1 Bft) 100,00 %
10.11.2019 08:38 0,5 C 0,0 C 0,0 C 98 % 1012,2 hPa 0,0 l/m 0 min 0 min 26 W/m 3,2 km/h (1 Bft) 97,87 %
10.11.2019 08:40 0,6 C 0,0 C 0,0 C 98 % 1012,3 hPa 0,0 l/m 0 min 0 min 26 W/m 12,9 km/h (3 Bft) 97,87 %
10.11.2019 08:42 0,6 C 0,0 C 0,0 C 98 % 1012,3 hPa 0,0 l/m 0 min 0 min 26 W/m 3,2 km/h (1 Bft) 100,00 %
10.11.2019 08:44 0,6 C 0,0 C 0,0 C 98 % 1012,3 hPa 0,0 l/m 0 min 0 min 28 W/m 6,4 km/h (2 Bft) 100,00 %
10.11.2019 08:46 0,6 C 0,0 C 0,0 C 98 % 1012,4 hPa 0,0 l/m 0 min 0 min 28 W/m 3,2 km/h (1 Bft) 97,87 %
10.11.2019 08:48 0,6 C 0,0 C 0,0 C 98 % 1012,4 hPa 0,0 l/m 0 min 0 min 29 W/m 3,2 km/h (1 Bft) 100,00 %
10.11.2019 08:50 0,6 C 0,0 C 0,0 C 98 % 1012,4 hPa 0,0 l/m 0 min 0 min 30 W/m 3,2 km/h (1 Bft) 100,00 %
10.11.2019 08:52 0,6 C 0,0 C 0,0 C 98 % 1012,4 hPa 0,0 l/m 0 min 0 min 32 W/m 3,2 km/h (1 Bft) 100,00 %
10.11.2019 08:54 0,6 C 0,6 C 0,0 C 98 % 1012,4 hPa 0,0 l/m 0 min 0 min 32 W/m 6,4 km/h (2 Bft) 100,00 %
10.11.2019 08:56 0,6 C 0,6 C 0,0 C 98 % 1012,3 hPa 0,0 l/m 0 min 0 min 33 W/m 0,0 km/h (0 Bft) 95,74 %
10.11.2019 08:58 0,6 C 0,6 C 0,0 C 98 % 1012,3 hPa 0,0 l/m 0 min 0 min 37 W/m 3,2 km/h (1 Bft) 97,87 %
10.11.2019 09:00 0,6 C 1,1 C 0,0 C 98 % 1012,4 hPa 0,0 l/m 2 min 0 min 94 W/m 12,9 km/h (3 Bft) 100,00 %
10.11.2019 09:02 0,7 C 1,1 C 0,6 C 98 % 1012,4 hPa 0,0 l/m 2 min 0 min 132 W/m 9,7 km/h (2 Bft) 97,87 %
10.11.2019 09:04 0,8 C 1,1 C 0,6 C 98 % 1012,4 hPa 0,0 l/m 2 min 0 min 137 W/m 3,2 km/h (1 Bft) 100,00 %
10.11.2019 09:06 0,8 C 1,1 C 0,6 C 98 % 1012,5 hPa 0,0 l/m 2 min 0 min 142 W/m 6,4 km/h (2 Bft) 100,00 %
10.11.2019 09:08 0,9 C 1,7 C 0,6 C 98 % 1012,4 hPa 0,0 l/m 2 min 0 min 148 W/m 3,2 km/h (1 Bft) 100,00 %
10.11.2019 09:10 0,9 C 1,7 C 0,6 C 98 % 1012,5 hPa 0,0 l/m 2 min 0 min 154 W/m 3,2 km/h (1 Bft) 100,00 %
10.11.2019 09:12 1,0 C 1,1 C 0,6 C 98 % 1012,5 hPa 0,0 l/m 2 min 0 min 158 W/m 6,4 km/h (2 Bft) 100,00 %
10.11.2019 09:14 1,1 C 1,1 C 0,6 C 98 % 1012,6 hPa 0,0 l/m 2 min 0 min 162 W/m 3,2 km/h (1 Bft) 100,00 %
10.11.2019 09:16 1,1 C 1,7 C 0,6 C 98 % 1012,7 hPa 0,0 l/m 2 min 0 min 167 W/m 3,2 km/h (1 Bft) 97,83 %
10.11.2019 09:18 1,2 C 1,7 C 0,6 C 98 % 1012,7 hPa 0,2 l/m 2 min 0 min 172 W/m 6,4 km/h (2 Bft) 97,87 %
10.11.2019 09:20 1,3 C 2,2 C 1,1 C 98 % 1012,7 hPa 0,0 l/m 2 min 0 min 176 W/m 6,4 km/h (2 Bft) 100,00 %
10.11.2019 09:22 1,4 C 2,8 C 1,1 C 98 % 1012,7 hPa 0,0 l/m 2 min 0 min 179 W/m 6,4 km/h (2 Bft) 100,00 %
10.11.2019 09:24 1,5 C 2,2 C 1,1 C 98 % 1012,7 hPa 0,0 l/m 2 min 0 min 185 W/m 6,4 km/h (2 Bft) 100,00 %
10.11.2019 09:26 1,6 C 2,2 C 1,1 C 98 % 1012,7 hPa 0,0 l/m 2 min 0 min 189 W/m 6,4 km/h (2 Bft) 100,00 %
10.11.2019 09:28 1,6 C 2,2 C 1,1 C 98 % 1012,7 hPa 0,0 l/m 2 min 0 min 191 W/m 3,2 km/h (1 Bft) 100,00 %
10.11.2019 09:30 1,7 C 2,2 C 1,1 C 98 % 1012,7 hPa 0,0 l/m 2 min 0 min 194 W/m 6,4 km/h (2 Bft) 100,00 %
10.11.2019 09:32 1,7 C 2,2 C 1,1 C 98 % 1012,8 hPa 0,0 l/m 2 min 0 min 197 W/m 3,2 km/h (1 Bft) 100,00 %
10.11.2019 09:34 1,8 C 2,2 C 1,1 C 98 % 1012,8 hPa 0,0 l/m 2 min 0 min 200 W/m 3,2 km/h (1 Bft) 100,00 %
10.11.2019 09:36 1,8 C 2,2 C 1,7 C 98 % 1012,9 hPa 0,0 l/m 2 min 0 min 204 W/m 0,0 km/h (0 Bft) 100,00 %
10.11.2019 09:38 1,8 C 3,3 C 1,7 C 98 % 1012,9 hPa 0,0 l/m 2 min 0 min 208 W/m 3,2 km/h (1 Bft) 100,00 %
10.11.2019 09:40 1,9 C 3,3 C 1,7 C 98 % 1012,9 hPa 0,0 l/m 2 min 0 min 201 W/m 0,0 km/h (0 Bft) 98,33 %
10.11.2019 09:42 1,9 C 2,8 C 1,7 C 98 % 1012,9 hPa 0,0 l/m 2 min 0 min 176 W/m 6,4 km/h (2 Bft) 97,87 %
10.11.2019 09:44 2,0 C 2,8 C 1,7 C 98 % 1012,9 hPa 0,0 l/m 2 min 0 min 129 W/m 3,2 km/h (1 Bft) 97,83 %
10.11.2019 09:46 2,0 C 2,8 C 1,7 C 98 % 1012,9 hPa 0,0 l/m 0 min 0 min 115 W/m 3,2 km/h (1 Bft) 97,87 %
10.11.2019 09:48 2,1 C 2,2 C 1,7 C 99 % 1013,0 hPa 0,0 l/m 0 min 0 min 83 W/m 3,2 km/h (1 Bft) 95,74 %
10.11.2019 09:50 2,1 C 2,2 C 1,7 C 99 % 1013,0 hPa 0,0 l/m 0 min 0 min 77 W/m 3,2 km/h (1 Bft) 97,87 %
10.11.2019 09:52 2,1 C 2,8 C 1,7 C 99 % 1013,1 hPa 0,0 l/m 0 min 0 min 94 W/m 3,2 km/h (1 Bft) 95,74 %
10.11.2019 09:54 2,2 C 2,8 C 1,7 C 99 % 1013,1 hPa 0,0 l/m 0 min 0 min 97 W/m 3,2 km/h (1 Bft) 97,87 %
10.11.2019 09:56 2,2 C 3,3 C 1,7 C 99 % 1013,1 hPa 0,0 l/m 2 min 0 min 143 W/m 3,2 km/h (1 Bft) 97,83 %
10.11.2019 09:58 2,2 C 3,3 C 1,7 C 98 % 1013,2 hPa 0,0 l/m 2 min 0 min 229 W/m 6,4 km/h (2 Bft) 97,87 %
10.11.2019 10:00 2,3 C 3,3 C 2,2 C 98 % 1013,2 hPa 0,0 l/m 2 min 0 min 243 W/m 3,2 km/h (1 Bft) 97,87 %
10.11.2019 10:02 2,3 C 3,9 C 2,2 C 98 % 1013,2 hPa 0,0 l/m 2 min 0 min 248 W/m 3,2 km/h (1 Bft) 97,87 %
10.11.2019 10:04 2,4 C 4,4 C 2,2 C 98 % 1013,2 hPa 0,0 l/m 2 min 0 min 253 W/m 6,4 km/h (2 Bft) 95,74 %
10.11.2019 10:06 2,4 C 3,9 C 2,2 C 98 % 1013,2 hPa 0,0 l/m 2 min 0 min 257 W/m 3,2 km/h (1 Bft) 91,30 %
10.11.2019 10:08 2,5 C 3,9 C 2,2 C 99 % 1013,2 hPa 0,0 l/m 2 min 0 min 261 W/m 3,2 km/h (1 Bft) 95,74 %
10.11.2019 10:10 2,6 C 3,3 C 2,2 C 99 % 1013,2 hPa 0,0 l/m 2 min 0 min 266 W/m 3,2 km/h (1 Bft) 95,74 %
10.11.2019 10:12 2,7 C 3,3 C 2,2 C 99 % 1013,2 hPa 0,0 l/m 2 min 0 min 270 W/m 6,4 km/h (2 Bft) 97,87 %
10.11.2019 10:14 2,7 C 3,3 C 2,2 C 99 % 1013,2 hPa 0,0 l/m 2 min 0 min 273 W/m 3,2 km/h (1 Bft) 97,87 %
10.11.2019 10:16 2,8 C 3,3 C 2,2 C 99 % 1013,2 hPa 0,0 l/m 2 min 0 min 276 W/m 0,0 km/h (0 Bft) 95,74 %
10.11.2019 10:18 2,8 C 3,3 C 2,2 C 99 % 1013,3 hPa 0,0 l/m 2 min 0 min 280 W/m 3,2 km/h (1 Bft) 97,83 %
10.11.2019 10:20 2,8 C 3,9 C 2,2 C 99 % 1013,2 hPa 0,0 l/m 2 min 0 min 283 W/m 3,2 km/h (1 Bft) 95,74 %
10.11.2019 10:22 2,9 C 3,9 C 2,2 C 99 % 1013,2 hPa 0,0 l/m 2 min 0 min 287 W/m 6,4 km/h (2 Bft) 95,74 %
10.11.2019 10:24 3,0 C 3,9 C 2,2 C 99 % 1013,3 hPa 0,0 l/m 2 min 0 min 284 W/m 6,4 km/h (2 Bft) 97,87 %
10.11.2019 10:26 3,1 C 4,4 C 2,8 C 99 % 1013,3 hPa 0,0 l/m 2 min 0 min 264 W/m 6,4 km/h (2 Bft) 95,74 %
10.11.2019 10:28 3,1 C 3,9 C 2,8 C 99 % 1013,4 hPa 0,0 l/m 2 min 0 min 244 W/m 3,2 km/h (1 Bft) 95,74 %
10.11.2019 10:30 3,1 C 3,9 C 2,8 C 99 % 1013,4 hPa 0,0 l/m 0 min 0 min 118 W/m 6,4 km/h (2 Bft) 97,83 %
10.11.2019 10:32 3,2 C 3,9 C 2,8 C 99 % 1013,4 hPa 0,0 l/m 0 min 0 min 74 W/m 6,4 km/h (2 Bft) 95,74 %
10.11.2019 10:34 3,2 C 3,9 C 2,8 C 99 % 1013,3 hPa 0,0 l/m 0 min 0 min 91 W/m 3,2 km/h (1 Bft) 95,74 %
10.11.2019 10:36 3,2 C 3,9 C 2,8 C 99 % 1013,3 hPa 0,0 l/m 0 min 0 min 105 W/m 3,2 km/h (1 Bft) 97,87 %
10.11.2019 10:38 3,3 C 3,9 C 2,8 C 99 % 1013,4 hPa 0,0 l/m 0 min 0 min 81 W/m 3,2 km/h (1 Bft) 100,00 %
10.11.2019 10:40 3,3 C 4,4 C 2,8 C 99 % 1013,4 hPa 0,0 l/m 0 min 0 min 88 W/m 6,4 km/h (2 Bft) 100,00 %
10.11.2019 10:42 3,3 C 6,1 C 2,8 C 99 % 1013,4 hPa 0,0 l/m 0 min 0 min 75 W/m 3,2 km/h (1 Bft) 97,83 %
10.11.2019 10:44 3,3 C 6,7 C 3,3 C 99 % 1013,4 hPa 0,0 l/m 0 min 0 min 73 W/m 12,9 km/h (3 Bft) 95,74 %
10.11.2019 10:46 3,4 C 6,1 C 3,3 C 99 % 1013,4 hPa 0,0 l/m 0 min 0 min 103 W/m 16,1 km/h (3 Bft) 100,00 %
10.11.2019 10:48 3,4 C 6,1 C 3,3 C 99 % 1013,4 hPa 0,0 l/m 0 min 0 min 158 W/m 6,4 km/h (2 Bft) 100,00 %
10.11.2019 10:50 3,5 C 5,6 C 3,3 C 99 % 1013,4 hPa 0,0 l/m 0 min 0 min 138 W/m 6,4 km/h (2 Bft) 100,00 %
10.11.2019 10:52 3,6 C 5,0 C 3,3 C 99 % 1013,4 hPa 0,0 l/m 0 min 0 min 128 W/m 6,4 km/h (2 Bft) 100,00 %
10.11.2019 10:54 3,6 C 5,6 C 3,9 C 99 % 1013,3 hPa 0,0 l/m 2 min 0 min 224 W/m 6,4 km/h (2 Bft) 97,83 %
10.11.2019 10:56 3,7 C 5,6 C 3,9 C 99 % 1013,4 hPa 0,0 l/m 2 min 0 min 227 W/m 16,1 km/h (3 Bft) 97,87 %
10.11.2019 10:58 3,7 C 6,1 C 3,9 C 99 % 1013,4 hPa 0,0 l/m 2 min 0 min 180 W/m 6,4 km/h (2 Bft) 97,87 %
10.11.2019 11:00 3,8 C 6,1 C 3,9 C 99 % 1013,5 hPa 0,0 l/m 0 min 0 min 87 W/m 6,4 km/h (2 Bft) 97,87 %
10.11.2019 11:02 3,8 C 7,8 C 3,9 C 99 % 1013,5 hPa 0,0 l/m 0 min 0 min 150 W/m 16,1 km/h (3 Bft) 97,87 %
10.11.2019 11:04 3,9 C 7,8 C 3,9 C 99 % 1013,5 hPa 0,0 l/m 2 min 0 min 179 W/m 16,1 km/h (3 Bft) 95,74 %
10.11.2019 11:06 4,0 C 8,3 C 3,9 C 99 % 1013,5 hPa 0,0 l/m 0 min 0 min 141 W/m 3,2 km/h (1 Bft) 97,83 %
10.11.2019 11:08 4,1 C 8,9 C 3,9 C 99 % 1013,5 hPa 0,0 l/m 2 min 0 min 263 W/m 12,9 km/h (3 Bft) 97,87 %
10.11.2019 11:10 4,1 C 9,4 C 3,9 C 99 % 1013,5 hPa 0,0 l/m 2 min 0 min 348 W/m 12,9 km/h (3 Bft) 97,87 %
10.11.2019 11:12 4,2 C 10,0 C 3,9 C 99 % 1013,5 hPa 0,0 l/m 2 min 0 min 350 W/m 12,9 km/h (3 Bft) 97,87 %
10.11.2019 11:14 4,3 C 10,6 C 3,9 C 99 % 1013,6 hPa 0,0 l/m 2 min 0 min 352 W/m 16,1 km/h (3 Bft) 97,87 %
10.11.2019 11:16 4,3 C 10,6 C 3,9 C 99 % 1013,5 hPa 0,0 l/m 2 min 0 min 352 W/m 16,1 km/h (3 Bft) 97,83 %
10.11.2019 11:18 4,4 C 11,1 C 3,9 C 99 % 1013,6 hPa 0,0 l/m 2 min 0 min 358 W/m 16,1 km/h (3 Bft) 97,87 %
10.11.2019 11:20 4,5 C 11,1 C 3,9 C 99 % 1013,6 hPa 0,0 l/m 2 min 0 min 362 W/m 12,9 km/h (3 Bft) 97,87 %
10.11.2019 11:22 4,6 C 11,7 C 3,9 C 99 % 1013,5 hPa 0,0 l/m 2 min 0 min 366 W/m 6,4 km/h (2 Bft) 95,74 %
10.11.2019 11:24 4,7 C 11,7 C 4,4 C 99 % 1013,6 hPa 0,0 l/m 2 min 0 min 370 W/m 6,4 km/h (2 Bft) 95,74 %
10.11.2019 11:26 4,8 C 12,2 C 4,4 C 99 % 1013,6 hPa 0,0 l/m 2 min 0 min 371 W/m 3,2 km/h (1 Bft) 95,74 %
10.11.2019 11:28 4,9 C 12,2 C 4,4 C 99 % 1013,6 hPa 0,0 l/m 2 min 0 min 374 W/m 6,4 km/h (2 Bft) 95,65 %
10.11.2019 11:30 5,0 C 11,7 C 4,4 C 99 % 1013,6 hPa 0,0 l/m 2 min 0 min 377 W/m 16,1 km/h (3 Bft) 97,87 %
10.11.2019 11:32 5,1 C 11,1 C 4,4 C 99 % 1013,6 hPa 0,0 l/m 2 min 0 min 375 W/m 12,9 km/h (3 Bft) 93,62 %
10.11.2019 11:34 5,2 C 11,1 C 4,4 C 99 % 1013,5 hPa 0,0 l/m 2 min 0 min 376 W/m 12,9 km/h (3 Bft) 93,62 %
10.11.2019 11:36 5,3 C 11,7 C 4,4 C 99 % 1013,5 hPa 0,0 l/m 2 min 0 min 376 W/m 6,4 km/h (2 Bft) 95,74 %
10.11.2019 11:38 5,4 C 11,1 C 4,4 C 99 % 1013,6 hPa 0,0 l/m 2 min 0 min 380 W/m 12,9 km/h (3 Bft) 95,74 %
10.11.2019 11:40 5,4 C 11,7 C 4,4 C 99 % 1013,5 hPa 0,0 l/m 2 min 0 min 382 W/m 6,4 km/h (2 Bft) 95,65 %
10.11.2019 11:42 5,6 C 12,2 C 4,4 C 99 % 1013,5 hPa 0,0 l/m 2 min 0 min 386 W/m 12,9 km/h (3 Bft) 93,62 %
10.11.2019 11:44 5,6 C 10,6 C 4,4 C 99 % 1013,5 hPa 0,0 l/m 2 min 0 min 388 W/m 12,9 km/h (3 Bft) 95,74 %
10.11.2019 11:46 5,7 C 10,0 C 4,4 C 99 % 1013,5 hPa 0,0 l/m 2 min 0 min 390 W/m 16,1 km/h (3 Bft) 95,74 %
10.11.2019 11:48 5,7 C 8,9 C 5,0 C 99 % 1013,5 hPa 0,0 l/m 2 min 0 min 353 W/m 16,1 km/h (3 Bft) 95,74 %
10.11.2019 11:50 5,8 C 7,8 C 5,0 C 99 % 1013,5 hPa 0,0 l/m 2 min 0 min 279 W/m 12,9 km/h (3 Bft) 65,96 %
10.11.2019 11:52 5,8 C 8,3 C 5,0 C 99 % 1013,5 hPa 0,0 l/m 2 min 0 min 308 W/m 12,9 km/h (3 Bft) 78,95 %
10.11.2019 11:54 5,9 C 8,9 C 5,0 C 99 % 1013,5 hPa 0,0 l/m 2 min 0 min 397 W/m 12,9 km/h (3 Bft) 95,74 %
10.11.2019 11:56 5,9 C 10,0 C 5,0 C 98 % 1013,5 hPa 0,0 l/m 2 min 0 min 403 W/m 16,1 km/h (3 Bft) 95,74 %
10.11.2019 11:58 6,0 C 11,1 C 5,0 C 98 % 1013,5 hPa 0,0 l/m 2 min 0 min 404 W/m 12,9 km/h (3 Bft) 95,74 %
10.11.2019 12:00 6,1 C 11,1 C 5,0 C 98 % 1013,6 hPa 0,0 l/m 2 min 0 min 404 W/m 12,9 km/h (3 Bft) 95,74 %
10.11.2019 12:02 6,1 C 12,2 C 5,0 C 97 % 1013,6 hPa 0,0 l/m 2 min 0 min 404 W/m 12,9 km/h (3 Bft) 95,74 %
10.11.2019 12:04 6,2 C 12,2 C 5,0 C 97 % 1013,6 hPa 0,0 l/m 2 min 0 min 407 W/m 16,1 km/h (3 Bft) 95,65 %
10.11.2019 12:08 6,3 C 12,8 C 5,0 C 97 % 1013,6 hPa 0,0 l/m 4 min 0 min 407 W/m 12,9 km/h (3 Bft) 93,62 %
10.11.2019 12:10 6,4 C 12,8 C 5,6 C 96 % 1013,6 hPa 0,0 l/m 2 min 0 min 410 W/m 12,9 km/h (3 Bft) 97,87 %
10.11.2019 12:12 6,5 C 12,8 C 5,6 C 96 % 1013,6 hPa 0,0 l/m 2 min 0 min 408 W/m 12,9 km/h (3 Bft) 95,74 %
10.11.2019 12:14 6,6 C 12,8 C 5,6 C 95 % 1013,6 hPa 0,0 l/m 2 min 0 min 408 W/m 16,1 km/h (3 Bft) 95,65 %
10.11.2019 12:16 6,7 C 12,8 C 6,1 C 95 % 1013,6 hPa 0,0 l/m 2 min 0 min 408 W/m 12,9 km/h (3 Bft) 97,87 %
10.11.2019 12:18 6,8 C 13,3 C 7,8 C 94 % 1013,6 hPa 0,0 l/m 2 min 0 min 409 W/m 6,4 km/h (2 Bft) 95,74 %
10.11.2019 12:20 6,9 C 13,9 C 7,2 C 94 % 1013,6 hPa 0,0 l/m 2 min 0 min 410 W/m 6,4 km/h (2 Bft) 97,87 %
10.11.2019 12:22 7,0 C 13,9 C 6,7 C 94 % 1013,6 hPa 0,0 l/m 2 min 0 min 410 W/m 6,4 km/h (2 Bft) 95,74 %
10.11.2019 12:24 7,1 C 13,3 C 7,2 C 93 % 1013,7 hPa 0,0 l/m 2 min 0 min 406 W/m 12,9 km/h (3 Bft) 97,87 %
10.11.2019 12:26 7,2 C 13,3 C 7,2 C 93 % 1013,7 hPa 0,0 l/m 2 min 0 min 403 W/m 12,9 km/h (3 Bft) 97,83 %
10.11.2019 12:28 7,3 C 13,9 C 7,2 C 92 % 1013,7 hPa 0,0 l/m 2 min 0 min 405 W/m 6,4 km/h (2 Bft) 97,87 %
10.11.2019 12:30 7,4 C 13,3 C 7,2 C 91 % 1013,7 hPa 0,0 l/m 2 min 0 min 409 W/m 12,9 km/h (3 Bft) 95,74 %
10.11.2019 12:32 7,5 C 12,8 C 7,2 C 91 % 1013,6 hPa 0,0 l/m 2 min 0 min 408 W/m 12,9 km/h (3 Bft) 97,87 %
10.11.2019 12:34 7,6 C 12,8 C 6,7 C 90 % 1013,6 hPa 0,0 l/m 2 min 0 min 404 W/m 12,9 km/h (3 Bft) 97,87 %
10.11.2019 12:36 7,7 C 13,9 C 6,7 C 90 % 1013,6 hPa 0,0 l/m 2 min 0 min 405 W/m 12,9 km/h (3 Bft) 95,74 %
10.11.2019 12:38 7,7 C 12,8 C 6,1 C 89 % 1013,6 hPa 0,0 l/m 2 min 0 min 404 W/m 16,1 km/h (3 Bft) 95,65 %
10.11.2019 12:40 7,8 C 13,3 C 6,1 C 88 % 1013,6 hPa 0,0 l/m 2 min 0 min 405 W/m 16,1 km/h (3 Bft) 95,74 %
10.11.2019 12:42 7,8 C 13,3 C 6,1 C 88 % 1013,6 hPa 0,0 l/m 2 min 0 min 405 W/m 12,9 km/h (3 Bft) 97,87 %
10.11.2019 12:44 7,9 C 13,3 C 6,1 C 87 % 1013,6 hPa 0,0 l/m 2 min 0 min 408 W/m 12,9 km/h (3 Bft) 97,87 %
10.11.2019 12:46 8,0 C 13,9 C 6,7 C 87 % 1013,6 hPa 0,0 l/m 2 min 0 min 405 W/m 3,2 km/h (1 Bft) 97,87 %
10.11.2019 12:48 8,1 C 13,3 C 6,7 C 87 % 1013,6 hPa 0,0 l/m 2 min 0 min 404 W/m 12,9 km/h (3 Bft) 97,87 %
10.11.2019 12:50 8,1 C 13,3 C 6,7 C 86 % 1013,6 hPa 0,0 l/m 2 min 0 min 403 W/m 12,9 km/h (3 Bft) 93,48 %
10.11.2019 12:52 8,2 C 13,9 C 6,7 C 86 % 1013,6 hPa 0,0 l/m 2 min 0 min 403 W/m 12,9 km/h (3 Bft) 93,62 %
10.11.2019 12:54 8,2 C 14,4 C 6,7 C 86 % 1013,6 hPa 0,0 l/m 2 min 0 min 404 W/m 0,0 km/h (0 Bft) 93,62 %
10.11.2019 12:56 8,3 C 14,4 C 6,7 C 86 % 1013,6 hPa 0,0 l/m 2 min 0 min 404 W/m 6,4 km/h (2 Bft) 95,74 %
10.11.2019 12:58 8,4 C 14,4 C 6,7 C 86 % 1013,6 hPa 0,0 l/m 2 min 0 min 404 W/m 12,9 km/h (3 Bft) 89,36 %
10.11.2019 13:00 8,4 C 15,0 C 6,7 C 85 % 1013,6 hPa 0,0 l/m 2 min 0 min 403 W/m 12,9 km/h (3 Bft) 95,74 %
10.11.2019 13:02 8,5 C 14,4 C 6,7 C 85 % 1013,6 hPa 0,0 l/m 2 min 0 min 400 W/m 6,4 km/h (2 Bft) 95,65 %
10.11.2019 13:04 8,6 C 13,9 C 6,7 C 84 % 1013,7 hPa 0,0 l/m 2 min 0 min 400 W/m 12,9 km/h (3 Bft) 95,74 %
10.11.2019 13:06 8,6 C 14,4 C 6,7 C 84 % 1013,6 hPa 0,0 l/m 2 min 0 min 399 W/m 3,2 km/h (1 Bft) 95,74 %
10.11.2019 13:08 8,7 C 14,4 C 6,7 C 84 % 1013,7 hPa 0,0 l/m 2 min 0 min 397 W/m 6,4 km/h (2 Bft) 93,62 %
10.11.2019 13:10 8,7 C 13,9 C 6,7 C 84 % 1013,6 hPa 0,0 l/m 2 min 0 min 396 W/m 12,9 km/h (3 Bft) 95,74 %
10.11.2019 13:12 8,8 C 13,9 C 6,7 C 83 % 1013,5 hPa 0,0 l/m 2 min 0 min 393 W/m 3,2 km/h (1 Bft) 95,65 %
10.11.2019 13:14 8,8 C 13,3 C 6,7 C 83 % 1013,6 hPa 0,0 l/m 2 min 0 min 393 W/m 12,9 km/h (3 Bft) 95,74 %
10.11.2019 13:16 8,8 C 13,9 C 6,7 C 83 % 1013,5 hPa 0,0 l/m 2 min 0 min 389 W/m 12,9 km/h (3 Bft) 93,62 %
10.11.2019 13:18 8,8 C 15,0 C 6,7 C 83 % 1013,5 hPa 0,0 l/m 2 min 0 min 388 W/m 0,0 km/h (0 Bft) 95,74 %
10.11.2019 13:20 8,9 C 15,0 C 7,2 C 83 % 1013,5 hPa 0,0 l/m 2 min 0 min 385 W/m 6,4 km/h (2 Bft) 95,74 %
10.11.2019 13:22 9,0 C 14,4 C 7,2 C 83 % 1013,5 hPa 0,0 l/m 2 min 0 min 384 W/m 6,4 km/h (2 Bft) 95,74 %
10.11.2019 13:24 9,0 C 13,9 C 7,2 C 82 % 1013,6 hPa 0,0 l/m 2 min 0 min 382 W/m 6,4 km/h (2 Bft) 93,48 %
10.11.2019 13:26 9,1 C 13,9 C 7,2 C 82 % 1013,6 hPa 0,0 l/m 2 min 0 min 380 W/m 3,2 km/h (1 Bft) 93,62 %
10.11.2019 13:28 9,1 C 14,4 C 7,2 C 82 % 1013,6 hPa 0,0 l/m 2 min 0 min 377 W/m 6,4 km/h (2 Bft) 91,49 %
10.11.2019 13:30 9,2 C 14,4 C 7,2 C 82 % 1013,6 hPa 0,0 l/m 2 min 0 min 375 W/m 6,4 km/h (2 Bft) 89,36 %
10.11.2019 13:32 9,2 C 14,4 C 7,8 C 82 % 1013,6 hPa 0,0 l/m 2 min 0 min 372 W/m 6,4 km/h (2 Bft) 95,74 %
10.11.2019 13:34 9,2 C 13,9 C 7,8 C 82 % 1013,6 hPa 0,0 l/m 2 min 0 min 367 W/m 6,4 km/h (2 Bft) 95,74 %
10.11.2019 13:36 9,3 C 13,9 C 7,8 C 81 % 1013,7 hPa 0,0 l/m 2 min 0 min 366 W/m 0,0 km/h (0 Bft) 95,65 %
10.11.2019 13:38 9,3 C 14,4 C 7,2 C 81 % 1013,7 hPa 0,0 l/m 2 min 0 min 361 W/m 3,2 km/h (1 Bft) 93,62 %
10.11.2019 13:40 9,3 C 15,0 C 7,2 C 82 % 1013,7 hPa 0,0 l/m 2 min 0 min 359 W/m 0,0 km/h (0 Bft) 93,62 %
10.11.2019 13:42 9,4 C 15,0 C 7,2 C 82 % 1013,7 hPa 0,0 l/m 2 min 0 min 358 W/m 6,4 km/h (2 Bft) 97,87 %
10.11.2019 13:44 9,4 C 14,4 C 7,2 C 81 % 1013,7 hPa 0,0 l/m 2 min 0 min 357 W/m 6,4 km/h (2 Bft) 97,87 %
10.11.2019 13:46 9,4 C 13,9 C 7,2 C 81 % 1013,7 hPa 0,0 l/m 2 min 0 min 355 W/m 12,9 km/h (3 Bft) 97,87 %
10.11.2019 13:48 9,4 C 13,3 C 7,2 C 80 % 1013,7 hPa 0,0 l/m 2 min 0 min 353 W/m 12,9 km/h (3 Bft) 95,65 %
10.11.2019 13:50 9,4 C 13,3 C 7,2 C 80 % 1013,6 hPa 0,0 l/m 2 min 0 min 354 W/m 3,2 km/h (1 Bft) 97,87 %
10.11.2019 13:52 9,4 C 13,3 C 7,2 C 80 % 1013,6 hPa 0,0 l/m 2 min 0 min 352 W/m 12,9 km/h (3 Bft) 97,87 %
10.11.2019 13:54 9,4 C 14,4 C 7,2 C 80 % 1013,6 hPa 0,0 l/m 2 min 0 min 350 W/m 0,0 km/h (0 Bft) 97,87 %
10.11.2019 13:56 9,5 C 14,4 C 7,2 C 80 % 1013,6 hPa 0,0 l/m 2 min 0 min 351 W/m 3,2 km/h (1 Bft) 97,87 %
10.11.2019 13:58 9,6 C 15,0 C 7,2 C 80 % 1013,6 hPa 0,0 l/m 2 min 0 min 347 W/m 6,4 km/h (2 Bft) 100,00 %
10.11.2019 14:00 9,6 C 15,0 C 7,2 C 81 % 1013,6 hPa 0,0 l/m 2 min 0 min 345 W/m 6,4 km/h (2 Bft) 97,83 %
10.11.2019 14:02 9,6 C 15,0 C 7,2 C 80 % 1013,6 hPa 0,0 l/m 2 min 0 min 342 W/m 0,0 km/h (0 Bft) 100,00 %
10.11.2019 14:04 9,6 C 15,0 C 7,2 C 80 % 1013,6 hPa 0,0 l/m 2 min 0 min 339 W/m 12,9 km/h (3 Bft) 100,00 %
10.11.2019 14:06 9,6 C 13,9 C 7,2 C 79 % 1013,6 hPa 0,0 l/m 2 min 0 min 334 W/m 12,9 km/h (3 Bft) 100,00 %
10.11.2019 14:08 9,6 C 13,9 C 6,7 C 79 % 1013,7 hPa 0,0 l/m 2 min 0 min 331 W/m 3,2 km/h (1 Bft) 100,00 %
10.11.2019 14:10 9,6 C 14,4 C 6,7 C 79 % 1013,7 hPa 0,0 l/m 2 min 0 min 329 W/m 0,0 km/h (0 Bft) 97,87 %
10.11.2019 14:12 9,6 C 15,0 C 6,7 C 80 % 1013,7 hPa 0,0 l/m 2 min 0 min 327 W/m 0,0 km/h (0 Bft) 100,00 %
10.11.2019 14:14 9,7 C 15,6 C 6,7 C 80 % 1013,6 hPa 0,0 l/m 2 min 0 min 323 W/m 0,0 km/h (0 Bft) 100,00 %
10.11.2019 14:16 9,7 C 15,6 C 6,7 C 79 % 1013,6 hPa 0,0 l/m 2 min 0 min 320 W/m 3,2 km/h (1 Bft) 100,00 %
10.11.2019 14:18 9,8 C 15,6 C 6,7 C 80 % 1013,6 hPa 0,0 l/m 2 min 0 min 316 W/m 0,0 km/h (0 Bft) 100,00 %
10.11.2019 14:20 9,8 C 15,0 C 6,1 C 80 % 1013,6 hPa 0,0 l/m 2 min 0 min 315 W/m 0,0 km/h (0 Bft) 100,00 %
10.11.2019 14:22 9,8 C 15,6 C 6,1 C 80 % 1013,6 hPa 0,0 l/m 2 min 0 min 311 W/m 0,0 km/h (0 Bft) 100,00 %
10.11.2019 14:24 9,9 C 15,6 C 6,7 C 80 % 1013,6 hPa 0,0 l/m 2 min 0 min 307 W/m 0,0 km/h (0 Bft) 100,00 %
10.11.2019 14:26 9,9 C 14,4 C 6,7 C 79 % 1013,7 hPa 0,0 l/m 2 min 0 min 303 W/m 3,2 km/h (1 Bft) 100,00 %
10.11.2019 14:28 9,9 C 14,4 C 6,7 C 79 % 1013,6 hPa 0,0 l/m 2 min 0 min 297 W/m 3,2 km/h (1 Bft) 100,00 %
10.11.2019 14:30 9,9 C 14,4 C 6,7 C 79 % 1013,7 hPa 0,0 l/m 2 min 0 min 293 W/m 0,0 km/h (0 Bft) 100,00 %
10.11.2019 14:32 9,9 C 14,4 C 6,1 C 78 % 1013,7 hPa 0,0 l/m 2 min 0 min 289 W/m 0,0 km/h (0 Bft) 100,00 %
10.11.2019 14:34 10,0 C 13,9 C 6,7 C 78 % 1013,7 hPa 0,0 l/m 2 min 0 min 286 W/m 3,2 km/h (1 Bft) 100,00 %
10.11.2019 14:36 10,0 C 13,9 C 6,1 C 78 % 1013,8 hPa 0,0 l/m 2 min 0 min 282 W/m 0,0 km/h (0 Bft) 100,00 %
10.11.2019 14:38 10,0 C 13,3 C 6,7 C 78 % 1013,7 hPa 0,0 l/m 2 min 0 min 280 W/m 0,0 km/h (0 Bft) 100,00 %
10.11.2019 14:40 10,0 C 13,9 C 6,1 C 78 % 1013,7 hPa 0,0 l/m 2 min 0 min 276 W/m 6,4 km/h (2 Bft) 100,00 %
10.11.2019 14:42 9,9 C 13,9 C 6,1 C 78 % 1013,7 hPa 0,0 l/m 2 min 0 min 273 W/m 3,2 km/h (1 Bft) 100,00 %
10.11.2019 14:44 9,9 C 13,9 C 6,1 C 78 % 1013,7 hPa 0,0 l/m 2 min 0 min 271 W/m 3,2 km/h (1 Bft) 100,00 %
10.11.2019 14:46 9,9 C 14,4 C 6,1 C 79 % 1013,7 hPa 0,0 l/m 2 min 0 min 266 W/m 0,0 km/h (0 Bft) 100,00 %
10.11.2019 14:48 9,9 C 13,9 C 6,1 C 78 % 1013,7 hPa 0,0 l/m 2 min 0 min 260 W/m 0,0 km/h (0 Bft) 100,00 %
10.11.2019 14:50 9,9 C 13,3 C 6,1 C 78 % 1013,7 hPa 0,0 l/m 2 min 0 min 255 W/m 3,2 km/h (1 Bft) 100,00 %
10.11.2019 14:52 9,9 C 13,3 C 6,1 C 78 % 1013,7 hPa 0,0 l/m 2 min 0 min 253 W/m 6,4 km/h (2 Bft) 100,00 %
10.11.2019 14:54 9,8 C 12,8 C 6,1 C 78 % 1013,7 hPa 0,0 l/m 2 min 0 min 248 W/m 3,2 km/h (1 Bft) 98,00 %
10.11.2019 14:56 9,8 C 11,1 C 6,1 C 78 % 1013,7 hPa 0,0 l/m 2 min 0 min 242 W/m 0,0 km/h (0 Bft) 100,00 %
10.11.2019 14:58 9,8 C 10,6 C 6,1 C 78 % 1013,8 hPa 0,0 l/m 2 min 0 min 239 W/m 0,0 km/h (0 Bft) 100,00 %
10.11.2019 15:00 9,8 C 9,4 C 6,1 C 78 % 1013,7 hPa 0,0 l/m 2 min 0 min 192 W/m 0,0 km/h (0 Bft) 100,00 %
10.11.2019 15:02 9,7 C 8,9 C 6,1 C 78 % 1013,7 hPa 0,0 l/m 0 min 0 min 81 W/m 0,0 km/h (0 Bft) 97,87 %
10.11.2019 15:04 9,7 C 8,3 C 5,6 C 79 % 1013,7 hPa 0,0 l/m 0 min 0 min 62 W/m 0,0 km/h (0 Bft) 100,00 %
10.11.2019 15:06 9,6 C 8,3 C 5,6 C 79 % 1013,7 hPa 0,0 l/m 0 min 0 min 61 W/m 0,0 km/h (0 Bft) 95,74 %
10.11.2019 15:08 9,6 C 7,8 C 5,6 C 79 % 1013,7 hPa 0,0 l/m 0 min 0 min 60 W/m 0,0 km/h (0 Bft) 97,83 %
10.11.2019 15:10 9,5 C 7,8 C 5,6 C 79 % 1013,8 hPa 0,0 l/m 0 min 0 min 59 W/m 3,2 km/h (1 Bft) 97,87 %
10.11.2019 15:12 9,4 C 7,8 C 5,6 C 79 % 1013,8 hPa 0,0 l/m 0 min 0 min 58 W/m 0,0 km/h (0 Bft) 97,87 %
10.11.2019 15:14 9,3 C 7,8 C 5,6 C 79 % 1013,8 hPa 0,0 l/m 0 min 0 min 57 W/m 3,2 km/h (1 Bft) 97,87 %
10.11.2019 15:16 9,3 C 7,8 C 5,6 C 80 % 1013,8 hPa 0,0 l/m 0 min 0 min 56 W/m 3,2 km/h (1 Bft) 93,62 %
10.11.2019 15:18 9,2 C 7,8 C 5,6 C 80 % 1013,8 hPa 0,0 l/m 0 min 0 min 56 W/m 3,2 km/h (1 Bft) 97,87 %
10.11.2019 15:20 9,2 C 7,8 C 5,6 C 80 % 1013,8 hPa 0,0 l/m 0 min 0 min 54 W/m 3,2 km/h (1 Bft) 97,83 %
10.11.2019 15:22 9,1 C 7,8 C 5,6 C 80 % 1013,9 hPa 0,0 l/m 0 min 0 min 54 W/m 3,2 km/h (1 Bft) 95,74 %
10.11.2019 15:24 9,1 C 7,8 C 5,6 C 80 % 1013,9 hPa 0,0 l/m 0 min 0 min 54 W/m 0,0 km/h (0 Bft) 95,74 %
10.11.2019 15:26 9,0 C 7,2 C 5,6 C 80 % 1013,9 hPa 0,0 l/m 0 min 0 min 53 W/m 0,0 km/h (0 Bft) 95,74 %
10.11.2019 15:28 8,9 C 7,2 C 5,6 C 80 % 1013,9 hPa 0,0 l/m 0 min 0 min 52 W/m 0,0 km/h (0 Bft) 95,74 %
10.11.2019 15:30 8,9 C 7,2 C 5,6 C 80 % 1013,9 hPa 0,0 l/m 0 min 0 min 51 W/m 0,0 km/h (0 Bft) 95,74 %
10.11.2019 15:32 8,8 C 7,2 C 5,6 C 80 % 1013,9 hPa 0,0 l/m 0 min 0 min 51 W/m 0,0 km/h (0 Bft) 95,65 %
10.11.2019 15:34 8,8 C 7,2 C 5,0 C 81 % 1014,0 hPa 0,0 l/m 0 min 0 min 49 W/m 3,2 km/h (1 Bft) 93,62 %
10.11.2019 15:36 8,7 C 7,2 C 5,0 C 81 % 1014,0 hPa 0,0 l/m 0 min 0 min 49 W/m 0,0 km/h (0 Bft) 95,74 %
10.11.2019 15:38 8,7 C 7,2 C 5,0 C 81 % 1014,1 hPa 0,0 l/m 0 min 0 min 47 W/m 0,0 km/h (0 Bft) 95,74 %
10.11.2019 15:40 8,7 C 7,2 C 5,0 C 81 % 1014,1 hPa 0,0 l/m 0 min 0 min 47 W/m 0,0 km/h (0 Bft) 95,74 %
10.11.2019 15:42 8,6 C 7,2 C 5,0 C 81 % 1014,1 hPa 0,0 l/m 0 min 0 min 46 W/m 6,4 km/h (2 Bft) 93,62 %
10.11.2019 15:44 8,6 C 7,2 C 5,0 C 81 % 1014,2 hPa 0,0 l/m 0 min 0 min 45 W/m 3,2 km/h (1 Bft) 93,48 %
10.11.2019 15:46 8,5 C 7,8 C 5,0 C 81 % 1014,1 hPa 0,0 l/m 0 min 0 min 46 W/m 0,0 km/h (0 Bft) 91,49 %
10.11.2019 15:48 8,4 C 7,8 C 5,0 C 82 % 1014,1 hPa 0,0 l/m 0 min 0 min 41 W/m 0,0 km/h (0 Bft) 95,74 %
10.11.2019 15:50 8,4 C 7,2 C 5,0 C 82 % 1014,2 hPa 0,0 l/m 0 min 0 min 40 W/m 0,0 km/h (0 Bft) 95,74 %
10.11.2019 15:52 8,4 C 7,2 C 5,0 C 82 % 1014,2 hPa 0,0 l/m 0 min 0 min 39 W/m 0,0 km/h (0 Bft) 89,36 %
10.11.2019 15:54 8,3 C 7,2 C 5,0 C 82 % 1014,2 hPa 0,0 l/m 0 min 0 min 37 W/m 0,0 km/h (0 Bft) 95,65 %
10.11.2019 15:56 8,3 C 7,2 C 5,0 C 82 % 1014,2 hPa 0,0 l/m 0 min 0 min 36 W/m 0,0 km/h (0 Bft) 95,74 %
10.11.2019 15:58 8,3 C 6,7 C 4,4 C 82 % 1014,2 hPa 0,0 l/m 0 min 0 min 35 W/m 0,0 km/h (0 Bft) 95,74 %
10.11.2019 16:00 8,2 C 6,7 C 4,4 C 82 % 1014,2 hPa 0,0 l/m 0 min 0 min 33 W/m 0,0 km/h (0 Bft) 95,74 %
10.11.2019 16:02 8,2 C 6,7 C 4,4 C 82 % 1014,2 hPa 0,0 l/m 0 min 0 min 33 W/m 0,0 km/h (0 Bft) 93,62 %
10.11.2019 16:04 8,2 C 6,1 C 4,4 C 82 % 1014,2 hPa 0,0 l/m 0 min 0 min 30 W/m 0,0 km/h (0 Bft) 93,62 %
10.11.2019 16:06 8,1 C 6,1 C 4,4 C 82 % 1014,2 hPa 0,0 l/m 0 min 0 min 30 W/m 0,0 km/h (0 Bft) 95,65 %
10.11.2019 16:08 8,1 C 6,1 C 4,4 C 82 % 1014,3 hPa 0,0 l/m 0 min 0 min 28 W/m 0,0 km/h (0 Bft) 93,62 %
10.11.2019 16:10 8,0 C 6,1 C 4,4 C 82 % 1014,3 hPa 0,0 l/m 0 min 0 min 26 W/m 0,0 km/h (0 Bft) 93,62 %
10.11.2019 16:12 7,9 C 6,1 C 3,9 C 83 % 1014,4 hPa 0,0 l/m 0 min 0 min 25 W/m 0,0 km/h (0 Bft) 93,62 %
10.11.2019 16:14 7,9 C 6,1 C 3,9 C 83 % 1014,4 hPa 0,0 l/m 0 min 0 min 25 W/m 0,0 km/h (0 Bft) 95,74 %
10.11.2019 16:16 7,8 C 5,6 C 3,9 C 83 % 1014,4 hPa 0,0 l/m 0 min 0 min 23 W/m 0,0 km/h (0 Bft) 95,74 %
10.11.2019 16:18 7,8 C 5,6 C 3,9 C 83 % 1014,4 hPa 0,0 l/m 0 min 0 min 23 W/m 0,0 km/h (0 Bft) 97,83 %
10.11.2019 16:20 7,7 C 5,6 C 3,9 C 83 % 1014,4 hPa 0,0 l/m 0 min 0 min 21 W/m 0,0 km/h (0 Bft) 100,00 %
10.11.2019 16:22 7,7 C 5,6 C 3,9 C 83 % 1014,4 hPa 0,0 l/m 0 min 0 min 19 W/m 0,0 km/h (0 Bft) 100,00 %
10.11.2019 16:24 7,6 C 5,6 C 3,3 C 84 % 1014,4 hPa 0,0 l/m 0 min 0 min 18 W/m 0,0 km/h (0 Bft) 100,00 %
10.11.2019 16:26 7,6 C 5,6 C 3,3 C 84 % 1014,5 hPa 0,0 l/m 0 min 0 min 18 W/m 0,0 km/h (0 Bft) 97,87 %
10.11.2019 16:28 7,5 C 5,6 C 3,3 C 84 % 1014,5 hPa 0,0 l/m 0 min 0 min 16 W/m 0,0 km/h (0 Bft) 100,00 %
10.11.2019 16:30 7,4 C 5,6 C 3,3 C 84 % 1014,5 hPa 0,0 l/m 0 min 0 min 16 W/m 0,0 km/h (0 Bft) 100,00 %
10.11.2019 16:32 7,3 C 5,6 C 3,3 C 84 % 1014,5 hPa 0,0 l/m 0 min 0 min 14 W/m 0,0 km/h (0 Bft) 97,87 %
10.11.2019 16:34 7,3 C 5,0 C 3,3 C 84 % 1014,5 hPa 0,0 l/m 0 min 0 min 13 W/m 0,0 km/h (0 Bft) 97,87 %
10.11.2019 16:36 7,2 C 5,0 C 3,3 C 84 % 1014,6 hPa 0,0 l/m 0 min 0 min 12 W/m 0,0 km/h (0 Bft) 95,74 %
10.11.2019 16:38 7,2 C 4,4 C 2,8 C 84 % 1014,6 hPa 0,0 l/m 0 min 0 min 12 W/m 0,0 km/h (0 Bft) 100,00 %
10.11.2019 16:40 7,1 C 4,4 C 2,8 C 84 % 1014,6 hPa 0,0 l/m 0 min 0 min 11 W/m 0,0 km/h (0 Bft) 100,00 %
10.11.2019 16:42 7,0 C 4,4 C 2,8 C 85 % 1014,7 hPa 0,0 l/m 0 min 0 min 11 W/m 0,0 km/h (0 Bft) 100,00 %
10.11.2019 16:44 6,9 C 3,9 C 2,8 C 85 % 1014,7 hPa 0,0 l/m 0 min 0 min 9 W/m 0,0 km/h (0 Bft) 100,00 %
10.11.2019 16:46 6,8 C 3,9 C 2,8 C 85 % 1014,7 hPa 0,0 l/m 0 min 0 min 9 W/m 0,0 km/h (0 Bft) 95,74 %
10.11.2019 16:48 6,7 C 3,9 C 2,8 C 85 % 1014,7 hPa 0,0 l/m 0 min 0 min 7 W/m 0,0 km/h (0 Bft) 97,87 %
10.11.2019 16:50 6,6 C 3,9 C 2,8 C 85 % 1014,7 hPa 0,0 l/m 0 min 0 min 7 W/m 0,0 km/h (0 Bft) 100,00 %
10.11.2019 16:52 6,5 C 3,9 C 2,2 C 85 % 1014,8 hPa 0,0 l/m 0 min 0 min 5 W/m 0,0 km/h (0 Bft) 100,00 %
10.11.2019 16:54 6,4 C 3,3 C 2,2 C 86 % 1014,8 hPa 0,0 l/m 0 min 0 min 5 W/m 0,0 km/h (0 Bft) 100,00 %
10.11.2019 16:56 6,3 C 3,3 C 2,2 C 86 % 1014,8 hPa 0,0 l/m 0 min 0 min 1 W/m 0,0 km/h (0 Bft) 97,87 %
10.11.2019 16:58 6,3 C 3,3 C 2,2 C 86 % 1014,8 hPa 0,0 l/m 0 min 0 min 0 W/m 0,0 km/h (0 Bft) 100,00 %
10.11.2019 17:00 6,2 C 3,3 C 2,2 C 86 % 1014,9 hPa 0,0 l/m 0 min 0 min 0 W/m 0,0 km/h (0 Bft) 100,00 %
10.11.2019 17:02 6,1 C 3,3 C 2,2 C 86 % 1014,9 hPa 0,0 l/m 0 min 0 min 0 W/m 0,0 km/h (0 Bft) 97,87 %
10.11.2019 17:04 6,0 C 3,3 C 2,2 C 86 % 1015,0 hPa 0,0 l/m 0 min 0 min 0 W/m 0,0 km/h (0 Bft) 100,00 %
10.11.2019 17:06 5,9 C 3,3 C 2,2 C 86 % 1015,1 hPa 0,0 l/m 0 min 0 min 0 W/m 0,0 km/h (0 Bft) 97,87 %
10.11.2019 17:08 5,8 C 2,8 C 2,2 C 87 % 1015,1 hPa 0,0 l/m 0 min 0 min 0 W/m 0,0 km/h (0 Bft) 100,00 %
10.11.2019 17:10 5,7 C 3,3 C 2,2 C 87 % 1015,1 hPa 0,0 l/m 0 min 0 min 0 W/m 6,4 km/h (2 Bft) 97,87 %
10.11.2019 17:12 5,7 C 3,3 C 1,7 C 87 % 1015,1 hPa 0,0 l/m 0 min 0 min 0 W/m 3,2 km/h (1 Bft) 97,87 %
10.11.2019 17:14 5,6 C 3,9 C 1,7 C 87 % 1015,2 hPa 0,0 l/m 0 min 0 min 0 W/m 0,0 km/h (0 Bft) 48,72 %
10.11.2019 17:16 5,6 C 3,9 C 2,2 C 87 % 1015,1 hPa 0,0 l/m 0 min 0 min 0 W/m 0,0 km/h (0 Bft) 95,65 %
10.11.2019 17:18 5,6 C 3,9 C 2,2 C 87 % 1015,2 hPa 0,0 l/m 0 min 0 min 0 W/m 0,0 km/h (0 Bft) 97,87 %
10.11.2019 17:20 5,6 C 4,4 C 2,2 C 88 % 1015,2 hPa 0,0 l/m 0 min 0 min 0 W/m 0,0 km/h (0 Bft) 97,87 %
10.11.2019 17:22 5,5 C 4,4 C 2,2 C 88 % 1015,2 hPa 0,0 l/m 0 min 0 min 0 W/m 3,2 km/h (1 Bft) 97,87 %
10.11.2019 17:24 5,5 C 4,4 C 2,2 C 88 % 1015,2 hPa 0,0 l/m 0 min 0 min 0 W/m 3,2 km/h (1 Bft) 95,74 %
10.11.2019 17:26 5,4 C 4,4 C 2,2 C 88 % 1015,2 hPa 0,0 l/m 0 min 0 min 0 W/m 3,2 km/h (1 Bft) 97,87 %
10.11.2019 17:28 5,4 C 4,4 C 2,2 C 89 % 1015,2 hPa 0,0 l/m 0 min 0 min 0 W/m 0,0 km/h (0 Bft) 97,83 %
10.11.2019 17:30 5,4 C 3,9 C 2,2 C 89 % 1015,2 hPa 0,0 l/m 0 min 0 min 0 W/m 0,0 km/h (0 Bft) 97,87 %
10.11.2019 17:32 5,4 C 3,9 C 2,2 C 89 % 1015,2 hPa 0,0 l/m 0 min 0 min 0 W/m 0,0 km/h (0 Bft) 95,74 %
10.11.2019 17:34 5,3 C 3,3 C 1,7 C 89 % 1015,2 hPa 0,0 l/m 0 min 0 min 0 W/m 0,0 km/h (0 Bft) 95,74 %
10.11.2019 17:36 5,3 C 3,3 C 1,7 C 89 % 1015,2 hPa 0,0 l/m 0 min 0 min 0 W/m 0,0 km/h (0 Bft) 93,62 %
10.11.2019 17:38 5,3 C 2,8 C 1,7 C 89 % 1015,2 hPa 0,0 l/m 0 min 0 min 0 W/m 0,0 km/h (0 Bft) 97,87 %
10.11.2019 17:40 5,2 C 2,8 C 1,7 C 89 % 1015,2 hPa 0,0 l/m 0 min 0 min 0 W/m 0,0 km/h (0 Bft) 100,00 %
10.11.2019 17:42 5,2 C 2,8 C 1,7 C 89 % 1015,2 hPa 0,0 l/m 0 min 0 min 0 W/m 0,0 km/h (0 Bft) 100,00 %
10.11.2019 17:44 5,1 C 2,2 C 1,7 C 89 % 1015,3 hPa 0,0 l/m 0 min 0 min 0 W/m 0,0 km/h (0 Bft) 100,00 %
10.11.2019 17:46 5,1 C 2,2 C 1,7 C 89 % 1015,3 hPa 0,0 l/m 0 min 0 min 0 W/m 0,0 km/h (0 Bft) 97,87 %
10.11.2019 17:48 4,9 C 2,2 C 1,7 C 89 % 1015,3 hPa 0,0 l/m 0 min 0 min 0 W/m 0,0 km/h (0 Bft) 97,87 %
10.11.2019 17:50 4,9 C 2,2 C 1,1 C 89 % 1015,3 hPa 0,0 l/m 0 min 0 min 0 W/m 0,0 km/h (0 Bft) 100,00 %
10.11.2019 17:52 4,8 C 2,2 C 1,1 C 89 % 1015,4 hPa 0,0 l/m 0 min 0 min 0 W/m 0,0 km/h (0 Bft) 100,00 %
10.11.2019 17:54 4,8 C 2,2 C 1,1 C 89 % 1015,3 hPa 0,0 l/m 0 min 0 min 0 W/m 0,0 km/h (0 Bft) 100,00 %
10.11.2019 17:56 4,7 C 2,2 C 1,1 C 89 % 1015,4 hPa 0,0 l/m 0 min 0 min 0 W/m 0,0 km/h (0 Bft) 100,00 %
10.11.2019 17:58 4,7 C 2,2 C 1,1 C 89 % 1015,4 hPa 0,0 l/m 0 min 0 min 0 W/m 0,0 km/h (0 Bft) 100,00 %
10.11.2019 18:00 4,6 C 2,2 C 1,1 C 89 % 1015,4 hPa 0,0 l/m 0 min 0 min 0 W/m 0,0 km/h (0 Bft) 97,87 %
10.11.2019 18:02 4,5 C 2,2 C 1,1 C 89 % 1015,4 hPa 0,0 l/m 0 min 0 min 0 W/m 0,0 km/h (0 Bft) 100,00 %
10.11.2019 18:04 4,4 C 2,2 C 1,1 C 89 % 1015,4 hPa 0,0 l/m 0 min 0 min 0 W/m 0,0 km/h (0 Bft) 100,00 %
10.11.2019 18:08 4,3 C 2,2 C 1,1 C 90 % 1015,4 hPa 0,0 l/m 0 min 0 min 0 W/m 0,0 km/h (0 Bft) 100,00 %
10.11.2019 18:10 4,3 C 2,2 C 1,1 C 90 % 1015,5 hPa 0,0 l/m 0 min 0 min 0 W/m 0,0 km/h (0 Bft) 97,87 %
10.11.2019 18:12 4,3 C 2,2 C 1,1 C 90 % 1015,5 hPa 0,0 l/m 0 min 0 min 0 W/m 0,0 km/h (0 Bft) 100,00 %
10.11.2019 18:14 4,2 C 2,2 C 1,1 C 90 % 1015,5 hPa 0,0 l/m 0 min 0 min 0 W/m 0,0 km/h (0 Bft) 100,00 %
10.11.2019 18:16 4,2 C 1,7 C 1,1 C 90 % 1015,5 hPa 0,0 l/m 0 min 0 min 0 W/m 0,0 km/h (0 Bft) 100,00 %
10.11.2019 18:18 4,1 C 1,7 C 1,1 C 90 % 1015,5 hPa 0,0 l/m 0 min 0 min 0 W/m 0,0 km/h (0 Bft) 100,00 %
10.11.2019 18:20 4,1 C 1,7 C 0,6 C 90 % 1015,5 hPa 0,0 l/m 0 min 0 min 0 W/m 0,0 km/h (0 Bft) 100,00 %
10.11.2019 18:22 4,0 C 1,7 C 0,6 C 90 % 1015,4 hPa 0,0 l/m 0 min 0 min 0 W/m 0,0 km/h (0 Bft) 100,00 %
10.11.2019 18:24 3,9 C 1,7 C 0,6 C 90 % 1015,4 hPa 0,0 l/m 0 min 0 min 0 W/m 0,0 km/h (0 Bft) 97,87 %
10.11.2019 18:26 3,9 C 1,7 C 0,6 C 90 % 1015,4 hPa 0,0 l/m 0 min 0 min 0 W/m 0,0 km/h (0 Bft) 95,65 %
10.11.2019 18:28 3,8 C 1,7 C 0,6 C 90 % 1015,4 hPa 0,0 l/m 0 min 0 min 0 W/m 0,0 km/h (0 Bft) 97,73 %
10.11.2019 18:30 3,8 C 1,7 C 0,6 C 90 % 1015,4 hPa 0,0 l/m 0 min 0 min 0 W/m 0,0 km/h (0 Bft) 100,00 %
10.11.2019 18:32 3,7 C 1,1 C 0,6 C 90 % 1015,4 hPa 0,0 l/m 0 min 0 min 0 W/m 0,0 km/h (0 Bft) 97,87 %
10.11.2019 18:34 3,7 C 1,1 C 0,6 C 90 % 1015,4 hPa 0,0 l/m 0 min 0 min 0 W/m 0,0 km/h (0 Bft) 97,83 %
10.11.2019 18:36 3,7 C 1,1 C 0,6 C 90 % 1015,4 hPa 0,0 l/m 0 min 0 min 0 W/m 0,0 km/h (0 Bft) 97,87 %
10.11.2019 18:38 3,6 C 1,1 C 0,6 C 90 % 1015,4 hPa 0,0 l/m 0 min 0 min 0 W/m 0,0 km/h (0 Bft) 100,00 %
10.11.2019 18:40 3,6 C 1,1 C 0,6 C 90 % 1015,4 hPa 0,0 l/m 0 min 0 min 0 W/m 0,0 km/h (0 Bft) 97,28 %
10.11.2019 18:42 3,5 C 1,1 C 0,6 C 90 % 1015,4 hPa 0,0 l/m 0 min 0 min 0 W/m 0,0 km/h (0 Bft) 98,39 %
10.11.2019 18:44 3,4 C 1,1 C 0,6 C 91 % 1015,5 hPa 0,0 l/m 0 min 0 min 0 W/m 0,0 km/h (0 Bft) 97,87 %
10.11.2019 18:46 3,4 C 1,1 C 0,6 C 91 % 1015,4 hPa 0,0 l/m 0 min 0 min 0 W/m 0,0 km/h (0 Bft) 95,74 %
10.11.2019 18:48 3,3 C 1,1 C 0,6 C 91 % 1015,4 hPa 0,0 l/m 0 min 0 min 0 W/m 0,0 km/h (0 Bft) 95,74 %
10.11.2019 18:50 3,3 C 1,1 C 0,6 C 91 % 1015,5 hPa 0,0 l/m 0 min 0 min 0 W/m 0,0 km/h (0 Bft) 93,62 %
10.11.2019 18:52 3,3 C 0,6 C 0,6 C 91 % 1015,5 hPa 0,0 l/m 0 min 0 min 0 W/m 0,0 km/h (0 Bft) 95,74 %
10.11.2019 18:54 3,2 C 0,6 C 0,0 C 91 % 1015,5 hPa 0,0 l/m 0 min 0 min 0 W/m 0,0 km/h (0 Bft) 95,74 %
10.11.2019 18:56 3,2 C 0,6 C 0,0 C 91 % 1015,5 hPa 0,0 l/m 0 min 0 min 0 W/m 0,0 km/h (0 Bft) 95,74 %
10.11.2019 18:58 3,1 C 0,6 C 0,0 C 91 % 1015,5 hPa 0,0 l/m 0 min 0 min 0 W/m 0,0 km/h (0 Bft) 95,74 %
10.11.2019 19:00 3,1 C 0,6 C 0,0 C 91 % 1015,5 hPa 0,0 l/m 0 min 0 min 0 W/m 0,0 km/h (0 Bft) 95,65 %
10.11.2019 19:02 3,0 C 0,6 C 0,0 C 91 % 1015,5 hPa 0,0 l/m 0 min 0 min 0 W/m 0,0 km/h (0 Bft) 94,44 %
10.11.2019 19:04 2,9 C 0,6 C 0,0 C 91 % 1015,5 hPa 0,0 l/m 0 min 0 min 0 W/m 0,0 km/h (0 Bft) 95,65 %
10.11.2019 19:06 2,9 C 0,6 C 0,0 C 91 % 1015,6 hPa 0,0 l/m 0 min 0 min 0 W/m 0,0 km/h (0 Bft) 93,62 %
10.11.2019 19:08 2,9 C 0,6 C 0,0 C 91 % 1015,5 hPa 0,0 l/m 0 min 0 min 0 W/m 0,0 km/h (0 Bft) 93,62 %
10.11.2019 19:10 2,8 C 0,6 C 0,0 C 91 % 1015,6 hPa 0,0 l/m 0 min 0 min 0 W/m 0,0 km/h (0 Bft) 97,87 %
10.11.2019 19:12 2,8 C 0,6 C 0,0 C 91 % 1015,6 hPa 0,0 l/m 0 min 0 min 0 W/m 0,0 km/h (0 Bft) 95,74 %
10.11.2019 19:14 2,7 C 0,6 C 0,0 C 91 % 1015,6 hPa 0,0 l/m 0 min 0 min 0 W/m 0,0 km/h (0 Bft) 97,87 %
10.11.2019 19:16 2,7 C 0,6 C 0,0 C 91 % 1015,6 hPa 0,0 l/m 0 min 0 min 0 W/m 0,0 km/h (0 Bft) 98,18 %
10.11.2019 19:18 2,7 C 1,1 C 0,0 C 91 % 1015,6 hPa 0,0 l/m 0 min 0 min 0 W/m 0,0 km/h (0 Bft) 97,83 %
10.11.2019 19:20 2,6 C 1,1 C 0,0 C 91 % 1015,6 hPa 0,0 l/m 0 min 0 min 0 W/m 0,0 km/h (0 Bft) 100,00 %
10.11.2019 19:22 2,6 C 1,1 C 0,0 C 91 % 1015,5 hPa 0,0 l/m 0 min 0 min 0 W/m 0,0 km/h (0 Bft) 95,74 %
10.11.2019 19:24 2,6 C 1,1 C 0,0 C 91 % 1015,5 hPa 0,0 l/m 0 min 0 min 0 W/m 0,0 km/h (0 Bft) 97,87 %
10.11.2019 19:26 2,5 C 1,1 C 0,0 C 92 % 1015,6 hPa 0,0 l/m 0 min 0 min 0 W/m 0,0 km/h (0 Bft) 95,74 %
10.11.2019 19:28 2,5 C 1,1 C 0,0 C 91 % 1015,6 hPa 0,0 l/m 0 min 0 min 0 W/m 0,0 km/h (0 Bft) 97,87 %
10.11.2019 19:30 2,4 C 0,6 C 0,0 C 91 % 1015,7 hPa 0,0 l/m 0 min 0 min 0 W/m 0,0 km/h (0 Bft) 95,65 %
10.11.2019 19:32 2,4 C 0,6 C 0,0 C 91 % 1015,8 hPa 0,0 l/m 0 min 0 min 0 W/m 0,0 km/h (0 Bft) 96,00 %
10.11.2019 19:34 2,4 C 0,6 C 0,0 C 92 % 1015,9 hPa 0,0 l/m 0 min 0 min 0 W/m 0,0 km/h (0 Bft) 97,87 %
10.11.2019 19:36 2,4 C 0,6 C 0,0 C 92 % 1015,9 hPa 0,0 l/m 0 min 0 min 0 W/m 0,0 km/h (0 Bft) 97,87 %
10.11.2019 19:38 2,3 C 0,0 C 0,0 C 92 % 1015,9 hPa 0,0 l/m 0 min 0 min 0 W/m 0,0 km/h (0 Bft) 95,74 %
10.11.2019 19:40 2,3 C 0,0 C 0,0 C 92 % 1015,9 hPa 0,0 l/m 0 min 0 min 0 W/m 0,0 km/h (0 Bft) 97,87 %
10.11.2019 19:42 2,3 C 0,0 C 0,0 C 92 % 1015,9 hPa 0,0 l/m 0 min 0 min 0 W/m 0,0 km/h (0 Bft) 97,14 %
10.11.2019 19:44 2,3 C 0,0 C 0,0 C 92 % 1015,8 hPa 0,0 l/m 0 min 0 min 0 W/m 0,0 km/h (0 Bft) 97,87 %
10.11.2019 19:46 2,2 C 0,6 C -0,6 C 92 % 1015,8 hPa 0,0 l/m 0 min 0 min 0 W/m 0,0 km/h (0 Bft) 97,87 %
10.11.2019 19:48 2,2 C 0,6 C 0,0 C 92 % 1015,7 hPa 0,0 l/m 0 min 0 min 0 W/m 0,0 km/h (0 Bft) 92,73 %
10.11.2019 19:50 2,2 C 0,6 C 0,0 C 92 % 1015,7 hPa 0,0 l/m 0 min 0 min 0 W/m 0,0 km/h (0 Bft) 56,10 %
10.11.2019 19:52 2,2 C 0,0 C 0,0 C 92 % 1015,8 hPa 0,0 l/m 0 min 0 min 0 W/m 0,0 km/h (0 Bft) 97,87 %
10.11.2019 19:54 2,1 C 0,0 C -0,6 C 92 % 1015,8 hPa 0,0 l/m 0 min 0 min 0 W/m 0,0 km/h (0 Bft) 97,83 %
10.11.2019 19:56 2,1 C 0,0 C -0,6 C 92 % 1015,8 hPa 0,0 l/m 0 min 0 min 0 W/m 0,0 km/h (0 Bft) 95,74 %
10.11.2019 19:58 2,1 C 0,0 C -0,6 C 92 % 1015,8 hPa 0,0 l/m 0 min 0 min 0 W/m 0,0 km/h (0 Bft) 97,87 %
10.11.2019 20:00 2,1 C 0,0 C -0,6 C 92 % 1015,8 hPa 0,0 l/m 0 min 0 min 0 W/m 0,0 km/h (0 Bft) 100,00 %
10.11.2019 20:02 2,0 C 0,6 C -0,6 C 92 % 1015,8 hPa 0,0 l/m 0 min 0 min 0 W/m 0,0 km/h (0 Bft) 100,00 %
10.11.2019 20:04 2,0 C 1,1 C 0,0 C 92 % 1015,8 hPa 0,0 l/m 0 min 0 min 0 W/m 0,0 km/h (0 Bft) 95,65 %
10.11.2019 20:06 2,0 C 1,1 C 0,0 C 92 % 1015,8 hPa 0,0 l/m 0 min 0 min 0 W/m 3,2 km/h (1 Bft) 97,87 %
10.11.2019 20:08 2,0 C 1,1 C 0,0 C 92 % 1015,7 hPa 0,0 l/m 0 min 0 min 0 W/m 0,0 km/h (0 Bft) 100,00 %
10.11.2019 20:10 2,0 C 1,1 C 0,6 C 92 % 1015,6 hPa 0,0 l/m 0 min 0 min 0 W/m 0,0 km/h (0 Bft) 97,87 %
10.11.2019 20:12 2,0 C 1,1 C 0,6 C 92 % 1015,6 hPa 0,0 l/m 0 min 0 min 0 W/m 0,0 km/h (0 Bft) 95,74 %
10.11.2019 20:14 2,0 C 1,1 C 0,6 C 92 % 1015,7 hPa 0,0 l/m 0 min 0 min 0 W/m 0,0 km/h (0 Bft) 97,87 %
10.11.2019 20:16 2,0 C 1,1 C 0,6 C 93 % 1015,7 hPa 0,0 l/m 0 min 0 min 0 W/m 0,0 km/h (0 Bft) 97,83 %
10.11.2019 20:18 2,0 C 1,1 C 0,6 C 93 % 1015,7 hPa 0,0 l/m 0 min 0 min 0 W/m 0,0 km/h (0 Bft) 97,87 %
10.11.2019 20:20 2,0 C 0,6 C 0,0 C 93 % 1015,8 hPa 0,0 l/m 0 min 0 min 0 W/m 0,0 km/h (0 Bft) 97,87 %
10.11.2019 20:22 2,0 C 0,6 C 0,0 C 93 % 1015,9 hPa 0,0 l/m 0 min 0 min 0 W/m 0,0 km/h (0 Bft) 97,87 %
10.11.2019 20:24 2,0 C 0,6 C 0,0 C 93 % 1015,9 hPa 0,0 l/m 0 min 0 min 0 W/m 0,0 km/h (0 Bft) 97,87 %
10.11.2019 20:26 2,0 C 0,0 C 0,0 C 93 % 1015,9 hPa 0,0 l/m 0 min 0 min 0 W/m 0,0 km/h (0 Bft) 97,87 %
10.11.2019 20:28 2,0 C 0,6 C 0,0 C 93 % 1015,7 hPa 0,0 l/m 0 min 0 min 0 W/m 0,0 km/h (0 Bft) 97,83 %
10.11.2019 20:30 2,0 C 1,1 C 0,0 C 93 % 1015,7 hPa 0,0 l/m 0 min 0 min 0 W/m 0,0 km/h (0 Bft) 97,87 %
10.11.2019 20:32 2,0 C 1,1 C 0,6 C 93 % 1015,7 hPa 0,0 l/m 0 min 0 min 0 W/m 12,9 km/h (3 Bft) 97,87 %
10.11.2019 20:34 2,0 C 1,1 C 0,6 C 93 % 1015,6 hPa 0,0 l/m 0 min 0 min 0 W/m 3,2 km/h (1 Bft) 97,87 %
10.11.2019 20:36 2,1 C 1,1 C 1,1 C 93 % 1015,5 hPa 0,0 l/m 0 min 0 min 0 W/m 6,4 km/h (2 Bft) 93,62 %
10.11.2019 20:38 2,1 C 1,1 C 1,1 C 94 % 1015,5 hPa 0,0 l/m 0 min 0 min 0 W/m 3,2 km/h (1 Bft) 97,87 %
10.11.2019 20:40 2,1 C 1,1 C 1,1 C 94 % 1015,5 hPa 0,0 l/m 0 min 0 min 0 W/m 6,4 km/h (2 Bft) 91,30 %
10.11.2019 20:42 2,2 C 1,1 C 1,1 C 94 % 1015,5 hPa 0,0 l/m 0 min 0 min 0 W/m 3,2 km/h (1 Bft) 95,74 %
10.11.2019 20:44 2,2 C 1,1 C 1,1 C 94 % 1015,6 hPa 0,0 l/m 0 min 0 min 0 W/m 6,4 km/h (2 Bft) 97,87 %
10.11.2019 20:46 2,2 C 1,1 C 1,1 C 94 % 1015,6 hPa 0,0 l/m 0 min 0 min 0 W/m 3,2 km/h (1 Bft) 97,87 %
10.11.2019 20:48 2,2 C 1,1 C 1,1 C 94 % 1015,6 hPa 0,0 l/m 0 min 0 min 0 W/m 12,9 km/h (3 Bft) 97,87 %
10.11.2019 20:50 2,3 C 1,1 C 1,1 C 94 % 1015,7 hPa 0,0 l/m 0 min 0 min 0 W/m 3,2 km/h (1 Bft) 97,87 %
10.11.2019 20:52 2,3 C 1,1 C 1,1 C 94 % 1015,6 hPa 0,0 l/m 0 min 0 min 0 W/m 3,2 km/h (1 Bft) 97,83 %
10.11.2019 20:54 2,3 C 1,1 C 1,1 C 95 % 1015,6 hPa 0,0 l/m 0 min 0 min 0 W/m 3,2 km/h (1 Bft) 97,87 %
10.11.2019 20:56 2,3 C 1,1 C 1,1 C 95 % 1015,6 hPa 0,0 l/m 0 min 0 min 0 W/m 3,2 km/h (1 Bft) 97,87 %
10.11.2019 20:58 2,3 C 1,1 C 1,1 C 95 % 1015,6 hPa 0,0 l/m 0 min 0 min 0 W/m 12,9 km/h (3 Bft) 97,87 %
10.11.2019 21:00 2,3 C 1,1 C 1,1 C 95 % 1015,5 hPa 0,0 l/m 0 min 0 min 0 W/m 12,9 km/h (3 Bft) 97,87 %
10.11.2019 21:02 2,3 C 1,1 C 1,1 C 95 % 1015,3 hPa 0,0 l/m 0 min 0 min 0 W/m 16,1 km/h (3 Bft) 93,48 %
10.11.2019 21:04 2,3 C 1,1 C 1,1 C 95 % 1015,2 hPa 0,0 l/m 0 min 0 min 0 W/m 12,9 km/h (3 Bft) 95,74 %
10.11.2019 21:06 2,3 C 1,1 C 1,1 C 95 % 1015,2 hPa 0,0 l/m 0 min 0 min 0 W/m 3,2 km/h (1 Bft) 95,74 %
10.11.2019 21:08 2,3 C 1,1 C 1,1 C 95 % 1015,2 hPa 0,0 l/m 0 min 0 min 0 W/m 6,4 km/h (2 Bft) 95,74 %
10.11.2019 21:10 2,3 C 1,1 C 1,1 C 95 % 1015,2 hPa 0,0 l/m 0 min 0 min 0 W/m 12,9 km/h (3 Bft) 97,87 %
10.11.2019 21:12 2,3 C 0,6 C 1,1 C 95 % 1015,1 hPa 0,0 l/m 0 min 0 min 0 W/m 6,4 km/h (2 Bft) 97,87 %
10.11.2019 21:14 2,3 C 1,1 C 1,1 C 95 % 1015,1 hPa 0,0 l/m 0 min 0 min 0 W/m 12,9 km/h (3 Bft) 97,83 %
10.11.2019 21:16 2,3 C 1,1 C 1,1 C 95 % 1015,2 hPa 0,0 l/m 0 min 0 min 0 W/m 6,4 km/h (2 Bft) 97,87 %
10.11.2019 21:18 2,3 C 0,6 C 1,1 C 95 % 1015,1 hPa 0,0 l/m 0 min 0 min 0 W/m 9,7 km/h (2 Bft) 95,74 %
10.11.2019 21:20 2,3 C 0,6 C 0,6 C 95 % 1015,1 hPa 0,0 l/m 0 min 0 min 0 W/m 9,7 km/h (2 Bft) 97,87 %
10.11.2019 21:22 2,2 C 0,6 C 0,6 C 95 % 1015,1 hPa 0,0 l/m 0 min 0 min 0 W/m 9,7 km/h (2 Bft) 97,87 %
10.11.2019 21:24 2,2 C 0,6 C 0,6 C 95 % 1015,0 hPa 0,0 l/m 0 min 0 min 0 W/m 12,9 km/h (3 Bft) 97,87 %
10.11.2019 21:26 2,2 C 0,6 C 0,6 C 95 % 1015,0 hPa 0,0 l/m 0 min 0 min 0 W/m 16,1 km/h (3 Bft) 47,37 %
10.11.2019 21:28 2,2 C 0,6 C 0,6 C 95 % 1015,0 hPa 0,0 l/m 0 min 0 min 0 W/m 16,1 km/h (3 Bft) 97,87 %
10.11.2019 21:30 2,1 C 0,6 C 0,6 C 95 % 1015,0 hPa 0,0 l/m 0 min 0 min 0 W/m 19,3 km/h (3 Bft) 97,87 %
10.11.2019 21:32 2,1 C 0,6 C 0,6 C 95 % 1015,0 hPa 0,0 l/m 0 min 0 min 0 W/m 6,4 km/h (2 Bft) 97,87 %
10.11.2019 21:34 2,0 C 0,6 C 0,6 C 95 % 1015,0 hPa 0,0 l/m 0 min 0 min 0 W/m 12,9 km/h (3 Bft) 97,87 %
10.11.2019 21:36 1,9 C 0,6 C 0,6 C 95 % 1015,0 hPa 0,0 l/m 0 min 0 min 0 W/m 12,9 km/h (3 Bft) 97,87 %
10.11.2019 21:38 1,9 C 0,6 C 0,0 C 95 % 1015,0 hPa 0,0 l/m 0 min 0 min 0 W/m 19,3 km/h (3 Bft) 97,83 %
10.11.2019 21:40 1,8 C 0,6 C 0,6 C 95 % 1015,0 hPa 0,0 l/m 0 min 0 min 0 W/m 16,1 km/h (3 Bft) 97,87 %
10.11.2019 21:42 1,8 C 0,6 C 0,6 C 95 % 1015,1 hPa 0,0 l/m 0 min 0 min 0 W/m 19,3 km/h (3 Bft) 97,87 %
10.11.2019 21:44 1,8 C 0,6 C 0,6 C 95 % 1015,1 hPa 0,0 l/m 0 min 0 min 0 W/m 16,1 km/h (3 Bft) 97,87 %
10.11.2019 21:46 1,7 C 0,6 C 0,6 C 95 % 1015,0 hPa 0,0 l/m 0 min 0 min 0 W/m 22,5 km/h (4 Bft) 95,74 %
10.11.2019 21:48 1,7 C 0,6 C 0,6 C 95 % 1015,0 hPa 0,0 l/m 0 min 0 min 0 W/m 6,4 km/h (2 Bft) 97,83 %
10.11.2019 21:50 1,7 C 0,6 C 0,6 C 96 % 1015,0 hPa 0,0 l/m 0 min 0 min 0 W/m 12,9 km/h (3 Bft) 100,00 %
10.11.2019 21:52 1,7 C 0,6 C 0,6 C 96 % 1015,1 hPa 0,0 l/m 0 min 0 min 0 W/m 16,1 km/h (3 Bft) 100,00 %
10.11.2019 21:54 1,7 C 0,6 C 0,6 C 96 % 1015,1 hPa 0,0 l/m 0 min 0 min 0 W/m 6,4 km/h (2 Bft) 97,87 %
10.11.2019 21:56 1,7 C 0,6 C 0,6 C 96 % 1015,1 hPa 0,0 l/m 0 min 0 min 0 W/m 12,9 km/h (3 Bft) 97,87 %
10.11.2019 21:58 1,7 C 0,6 C 0,6 C 96 % 1015,3 hPa 0,0 l/m 0 min 0 min 0 W/m 19,3 km/h (3 Bft) 97,87 %
10.11.2019 22:00 1,7 C 1,1 C 0,6 C 96 % 1015,3 hPa 0,0 l/m 0 min 0 min 0 W/m 12,9 km/h (3 Bft) 100,00 %
10.11.2019 22:02 1,7 C 1,1 C 0,6 C 96 % 1015,2 hPa 0,0 l/m 0 min 0 min 0 W/m 12,9 km/h (3 Bft) 100,00 %
10.11.2019 22:04 1,7 C 1,1 C 0,6 C 96 % 1015,2 hPa 0,0 l/m 0 min 0 min 0 W/m 16,1 km/h (3 Bft) 97,87 %
10.11.2019 22:06 1,7 C 1,1 C 0,6 C 96 % 1015,1 hPa 0,0 l/m 0 min 0 min 0 W/m 19,3 km/h (3 Bft) 97,87 %
10.11.2019 22:08 1,7 C 1,1 C 0,6 C 96 % 1015,2 hPa 0,0 l/m 0 min 0 min 0 W/m 12,9 km/h (3 Bft) 100,00 %
10.11.2019 22:10 1,7 C 1,1 C 0,6 C 96 % 1015,1 hPa 0,0 l/m 0 min 0 min 0 W/m 19,3 km/h (3 Bft) 100,00 %
10.11.2019 22:12 1,7 C 1,1 C 0,6 C 96 % 1015,2 hPa 0,0 l/m 0 min 0 min 0 W/m 12,9 km/h (3 Bft) 95,65 %
10.11.2019 22:14 1,7 C 1,1 C 0,6 C 96 % 1015,2 hPa 0,0 l/m 0 min 0 min 0 W/m 12,9 km/h (3 Bft) 93,62 %
10.11.2019 22:16 1,8 C 1,1 C 0,6 C 96 % 1015,1 hPa 0,0 l/m 0 min 0 min 0 W/m 19,3 km/h (3 Bft) 95,74 %
10.11.2019 22:18 1,8 C 1,1 C 0,6 C 96 % 1015,1 hPa 0,0 l/m 0 min 0 min 0 W/m 16,1 km/h (3 Bft) 93,62 %
10.11.2019 22:20 1,8 C 1,1 C 0,6 C 96 % 1015,1 hPa 0,0 l/m 0 min 0 min 0 W/m 12,9 km/h (3 Bft) 93,62 %
10.11.2019 22:22 1,8 C 1,1 C 0,6 C 96 % 1015,1 hPa 0,0 l/m 0 min 0 min 0 W/m 16,1 km/h (3 Bft) 91,49 %
10.11.2019 22:24 1,8 C 1,1 C 0,6 C 96 % 1015,1 hPa 0,0 l/m 0 min 0 min 0 W/m 22,5 km/h (4 Bft) 95,65 %
10.11.2019 22:26 1,8 C 1,1 C 0,6 C 97 % 1015,1 hPa 0,0 l/m 0 min 0 min 0 W/m 22,5 km/h (4 Bft) 95,74 %
10.11.2019 22:28 1,8 C 1,1 C 0,6 C 97 % 1015,0 hPa 0,0 l/m 0 min 0 min 0 W/m 19,3 km/h (3 Bft) 95,74 %
10.11.2019 22:30 1,8 C 1,1 C 0,6 C 97 % 1015,0 hPa 0,0 l/m 0 min 0 min 0 W/m 19,3 km/h (3 Bft) 95,74 %
10.11.2019 22:32 1,9 C 1,1 C 0,6 C 97 % 1015,1 hPa 0,0 l/m 0 min 0 min 0 W/m 16,1 km/h (3 Bft) 93,62 %
10.11.2019 22:34 1,9 C 1,1 C 0,6 C 97 % 1015,1 hPa 0,0 l/m 0 min 0 min 0 W/m 25,7 km/h (4 Bft) 95,74 %
10.11.2019 22:36 1,9 C 1,1 C 0,6 C 97 % 1015,2 hPa 0,0 l/m 0 min 0 min 0 W/m 19,3 km/h (3 Bft) 95,65 %
10.11.2019 22:38 1,9 C 1,1 C 0,6 C 97 % 1015,2 hPa 0,0 l/m 0 min 0 min 0 W/m 25,7 km/h (4 Bft) 95,74 %
10.11.2019 22:40 1,9 C 1,1 C 1,1 C 97 % 1015,2 hPa 0,0 l/m 0 min 0 min 0 W/m 16,1 km/h (3 Bft) 95,74 %
10.11.2019 22:42 1,9 C 1,1 C 1,1 C 97 % 1015,2 hPa 0,0 l/m 0 min 0 min 0 W/m 22,5 km/h (4 Bft) 95,74 %
10.11.2019 22:44 1,9 C 1,1 C 1,1 C 97 % 1015,1 hPa 0,0 l/m 0 min 0 min 0 W/m 22,5 km/h (4 Bft) 93,62 %
10.11.2019 22:46 1,9 C 1,1 C 1,1 C 97 % 1015,2 hPa 0,0 l/m 0 min 0 min 0 W/m 16,1 km/h (3 Bft) 95,74 %
10.11.2019 22:48 1,9 C 1,1 C 1,1 C 97 % 1015,2 hPa 0,0 l/m 0 min 0 min 0 W/m 19,3 km/h (3 Bft) 95,65 %
10.11.2019 22:50 1,9 C 1,1 C 1,1 C 97 % 1015,2 hPa 0,0 l/m 0 min 0 min 0 W/m 16,1 km/h (3 Bft) 91,49 %
10.11.2019 22:52 2,0 C 1,1 C 1,1 C 97 % 1015,2 hPa 0,0 l/m 0 min 0 min 0 W/m 16,1 km/h (3 Bft) 95,74 %
10.11.2019 22:54 2,0 C 1,1 C 1,1 C 97 % 1015,2 hPa 0,0 l/m 0 min 0 min 0 W/m 12,9 km/h (3 Bft) 97,87 %
10.11.2019 22:56 2,0 C 1,1 C 1,1 C 97 % 1015,2 hPa 0,0 l/m 0 min 0 min 0 W/m 16,1 km/h (3 Bft) 95,74 %
10.11.2019 22:58 2,0 C 1,7 C 1,1 C 97 % 1015,2 hPa 0,0 l/m 0 min 0 min 0 W/m 19,3 km/h (3 Bft) 97,87 %
10.11.2019 23:00 2,1 C 1,7 C 1,1 C 97 % 1015,2 hPa 0,0 l/m 0 min 0 min 0 W/m 16,1 km/h (3 Bft) 100,00 %
10.11.2019 23:02 2,1 C 1,7 C 1,1 C 97 % 1015,1 hPa 0,0 l/m 0 min 0 min 0 W/m 16,1 km/h (3 Bft) 97,87 %
10.11.2019 23:04 2,1 C 1,7 C 1,1 C 97 % 1015,1 hPa 0,0 l/m 0 min 0 min 0 W/m 12,9 km/h (3 Bft) 97,87 %
10.11.2019 23:06 2,1 C 1,7 C 1,1 C 98 % 1015,0 hPa 0,0 l/m 0 min 0 min 0 W/m 19,3 km/h (3 Bft) 91,49 %
10.11.2019 23:08 2,1 C 1,7 C 1,1 C 98 % 1015,0 hPa 0,0 l/m 0 min 0 min 0 W/m 22,5 km/h (4 Bft) 100,00 %
10.11.2019 23:10 2,2 C 1,7 C 1,1 C 98 % 1015,0 hPa 0,0 l/m 0 min 0 min 0 W/m 16,1 km/h (3 Bft) 97,83 %
10.11.2019 23:12 2,2 C 1,7 C 1,1 C 98 % 1014,9 hPa 0,0 l/m 0 min 0 min 0 W/m 19,3 km/h (3 Bft) 97,87 %
10.11.2019 23:14 2,2 C 1,7 C 1,1 C 98 % 1014,9 hPa 0,0 l/m 0 min 0 min 0 W/m 12,9 km/h (3 Bft) 100,00 %
10.11.2019 23:16 2,2 C 1,7 C 1,1 C 98 % 1014,9 hPa 0,0 l/m 0 min 0 min 0 W/m 19,3 km/h (3 Bft) 100,00 %
10.11.2019 23:18 2,2 C 1,7 C 1,1 C 98 % 1014,8 hPa 0,0 l/m 0 min 0 min 0 W/m 16,1 km/h (3 Bft) 100,00 %
10.11.2019 23:20 2,3 C 1,7 C 1,1 C 98 % 1014,9 hPa 0,0 l/m 0 min 0 min 0 W/m 35,4 km/h (5 Bft) 100,00 %
10.11.2019 23:22 2,3 C 1,7 C 1,1 C 98 % 1014,9 hPa 0,0 l/m 0 min 0 min 0 W/m 16,1 km/h (3 Bft) 100,00 %
10.11.2019 23:24 2,3 C 1,7 C 1,1 C 98 % 1014,8 hPa 0,0 l/m 0 min 0 min 0 W/m 6,4 km/h (2 Bft) 100,00 %
10.11.2019 23:26 2,3 C 1,7 C 1,1 C 98 % 1014,8 hPa 0,0 l/m 0 min 0 min 0 W/m 16,1 km/h (3 Bft) 100,00 %
10.11.2019 23:28 2,3 C 1,7 C 1,1 C 98 % 1014,9 hPa 0,0 l/m 0 min 0 min 0 W/m 19,3 km/h (3 Bft) 100,00 %
10.11.2019 23:30 2,3 C 1,7 C 1,1 C 98 % 1014,9 hPa 0,0 l/m 0 min 0 min 0 W/m 19,3 km/h (3 Bft) 100,00 %
10.11.2019 23:32 2,3 C 1,7 C 1,1 C 98 % 1014,9 hPa 0,0 l/m 0 min 0 min 0 W/m 12,9 km/h (3 Bft) 100,00 %
10.11.2019 23:34 2,3 C 1,7 C 1,1 C 98 % 1014,9 hPa 0,0 l/m 0 min 0 min 0 W/m 19,3 km/h (3 Bft) 100,00 %
10.11.2019 23:36 2,4 C 1,7 C 1,1 C 98 % 1014,9 hPa 0,0 l/m 0 min 0 min 0 W/m 12,9 km/h (3 Bft) 97,87 %
10.11.2019 23:38 2,4 C 1,7 C 1,1 C 98 % 1015,0 hPa 0,0 l/m 0 min 0 min 0 W/m 16,1 km/h (3 Bft) 100,00 %
10.11.2019 23:40 2,4 C 1,7 C 1,7 C 98 % 1015,0 hPa 0,0 l/m 0 min 0 min 0 W/m 16,1 km/h (3 Bft) 100,00 %
10.11.2019 23:42 2,4 C 1,7 C 1,7 C 98 % 1015,0 hPa 0,0 l/m 0 min 0 min 0 W/m 6,4 km/h (2 Bft) 100,00 %
10.11.2019 23:44 2,4 C 1,7 C 1,7 C 98 % 1015,0 hPa 0,0 l/m 0 min 0 min 0 W/m 3,2 km/h (1 Bft) 100,00 %
10.11.2019 23:46 2,4 C 1,7 C 1,7 C 98 % 1015,1 hPa 0,0 l/m 0 min 0 min 0 W/m 12,9 km/h (3 Bft) 100,00 %
10.11.2019 23:48 2,4 C 1,7 C 1,7 C 98 % 1015,2 hPa 0,0 l/m 0 min 0 min 0 W/m 22,5 km/h (4 Bft) 100,00 %
10.11.2019 23:50 2,4 C 1,7 C 1,7 C 98 % 1015,1 hPa 0,0 l/m 0 min 0 min 0 W/m 19,3 km/h (3 Bft) 100,00 %
10.11.2019 23:52 2,4 C 1,7 C 1,7 C 98 % 1015,1 hPa 0,0 l/m 0 min 0 min 0 W/m 19,3 km/h (3 Bft) 100,00 %
10.11.2019 23:54 2,4 C 1,7 C 1,7 C 98 % 1015,1 hPa 0,0 l/m 0 min 0 min 0 W/m 25,7 km/h (4 Bft) 100,00 %
10.11.2019 23:56 2,4 C 1,7 C 1,1 C 98 % 1015,1 hPa 0,0 l/m 0 min 0 min 0 W/m 22,5 km/h (4 Bft) 100,00 %
10.11.2019 23:58 2,4 C 1,7 C 1,7 C 98 % 1014,9 hPa 0,0 l/m 0 min 0 min 0 W/m 22,5 km/h (4 Bft) 100,00 %
_ Min-Zeit 06:36 06:12 06:00 14:32 00:00 - - - - 00:00 21:26
Minimum _ -1,2 C -2,8 C -2,8 C 78 % 1008,5 hPa - - - - 0,0 km/h (0 Bft) 47,37 %
_ Max-Zeit 14:34 14:14 12:18 09:48 19:34 09:18 12:08 00:00 12:10 23:20 00:00
Maximum _ 10,0 C 15,6 C 7,8 C 99 % 1015,9 hPa 0,2 l/m 4 min 0 min 410 W/m 35,4 km/h
O (5 Bft)
100,00 %
Durchschnitt _ 3,1 C 3,1 C 1,4 C 93 % 1012,8 hPa #0,2 l/m #5:22 h #0 min. 201 W/m 4,6 km/h (1 Bft) 97,08 %
© 2019 W. Hausmann